<?xml version="1.0" encoding="UTF-8" standalone="no" ?>
<gpx xmlns="http://www.topografix.com/GPX/1/1" xmlns:xsi="http://www.w3.org/2001/XMLSchema-instance" xsi:schemaLocation="http://www.topografix.com/GPX/1/1 http://www.topografix.com/GPX/1/1/gpx.xsd" version="1.1" creator="VisuGPX - https://www.visugpx.com">
  <metadata>
    <name>Condrieu-Col de Grenouze A/R</name>
  </metadata>
  <trk>
    <name><![CDATA[Course à pied matinale]]></name>
    <trkseg>
      <trkpt lat="45.46142" lon="4.76409">
        <ele>152.3</ele>
        <time>2019-10-19T06:15:48Z</time>
      </trkpt>
      <trkpt lat="45.46144" lon="4.76407">
        <ele>152.3</ele>
        <time>2019-10-19T06:15:49Z</time>
      </trkpt>
      <trkpt lat="45.46155" lon="4.76394">
        <ele>153.8</ele>
        <time>2019-10-19T06:16:00Z</time>
      </trkpt>
      <trkpt lat="45.46168" lon="4.76375">
        <ele>155.6</ele>
        <time>2019-10-19T06:16:12Z</time>
      </trkpt>
      <trkpt lat="45.46181" lon="4.76355">
        <ele>157.1</ele>
        <time>2019-10-19T06:16:23Z</time>
      </trkpt>
      <trkpt lat="45.46191" lon="4.76334">
        <ele>160.2</ele>
        <time>2019-10-19T06:16:34Z</time>
      </trkpt>
      <trkpt lat="45.46181" lon="4.7631">
        <ele>160</ele>
        <time>2019-10-19T06:16:42Z</time>
      </trkpt>
      <trkpt lat="45.46169" lon="4.76289">
        <ele>160.2</ele>
        <time>2019-10-19T06:16:51Z</time>
      </trkpt>
      <trkpt lat="45.4616" lon="4.76263">
        <ele>160.7</ele>
        <time>2019-10-19T06:17:01Z</time>
      </trkpt>
      <trkpt lat="45.4615" lon="4.76239">
        <ele>160.9</ele>
        <time>2019-10-19T06:17:10Z</time>
      </trkpt>
      <trkpt lat="45.46142" lon="4.76215">
        <ele>160.9</ele>
        <time>2019-10-19T06:17:19Z</time>
      </trkpt>
      <trkpt lat="45.46129" lon="4.76193">
        <ele>160.9</ele>
        <time>2019-10-19T06:17:28Z</time>
      </trkpt>
      <trkpt lat="45.46112" lon="4.76179">
        <ele>160.9</ele>
        <time>2019-10-19T06:17:33Z</time>
      </trkpt>
      <trkpt lat="45.46096" lon="4.76167">
        <ele>161.2</ele>
        <time>2019-10-19T06:17:39Z</time>
      </trkpt>
      <trkpt lat="45.4608" lon="4.76148">
        <ele>161.8</ele>
        <time>2019-10-19T06:17:47Z</time>
      </trkpt>
      <trkpt lat="45.46068" lon="4.76129">
        <ele>162.2</ele>
        <time>2019-10-19T06:17:55Z</time>
      </trkpt>
      <trkpt lat="45.46066" lon="4.76103">
        <ele>162.7</ele>
        <time>2019-10-19T06:18:03Z</time>
      </trkpt>
      <trkpt lat="45.46056" lon="4.76083">
        <ele>162.9</ele>
        <time>2019-10-19T06:18:11Z</time>
      </trkpt>
      <trkpt lat="45.46039" lon="4.76067">
        <ele>163.2</ele>
        <time>2019-10-19T06:18:20Z</time>
      </trkpt>
      <trkpt lat="45.46022" lon="4.76052">
        <ele>163.2</ele>
        <time>2019-10-19T06:18:29Z</time>
      </trkpt>
      <trkpt lat="45.46008" lon="4.76034">
        <ele>162.8</ele>
        <time>2019-10-19T06:18:37Z</time>
      </trkpt>
      <trkpt lat="45.45997" lon="4.76011">
        <ele>162.6</ele>
        <time>2019-10-19T06:18:46Z</time>
      </trkpt>
      <trkpt lat="45.45985" lon="4.75989">
        <ele>162.1</ele>
        <time>2019-10-19T06:18:56Z</time>
      </trkpt>
      <trkpt lat="45.45984" lon="4.75965">
        <ele>161.6</ele>
        <time>2019-10-19T06:19:04Z</time>
      </trkpt>
      <trkpt lat="45.4599" lon="4.75939">
        <ele>161</ele>
        <time>2019-10-19T06:19:12Z</time>
      </trkpt>
      <trkpt lat="45.46007" lon="4.7593">
        <ele>160.7</ele>
        <time>2019-10-19T06:19:21Z</time>
      </trkpt>
      <trkpt lat="45.46027" lon="4.75924">
        <ele>162</ele>
        <time>2019-10-19T06:19:30Z</time>
      </trkpt>
      <trkpt lat="45.46044" lon="4.75917">
        <ele>162.3</ele>
        <time>2019-10-19T06:19:39Z</time>
      </trkpt>
      <trkpt lat="45.4606" lon="4.75905">
        <ele>163</ele>
        <time>2019-10-19T06:19:49Z</time>
      </trkpt>
      <trkpt lat="45.46063" lon="4.759">
        <ele>163.2</ele>
        <time>2019-10-19T06:19:52Z</time>
      </trkpt>
      <trkpt lat="45.46062" lon="4.75875">
        <ele>164.3</ele>
        <time>2019-10-19T06:20:04Z</time>
      </trkpt>
      <trkpt lat="45.46066" lon="4.75854">
        <ele>165.7</ele>
        <time>2019-10-19T06:20:15Z</time>
      </trkpt>
      <trkpt lat="45.46079" lon="4.75834">
        <ele>168.8</ele>
        <time>2019-10-19T06:20:28Z</time>
      </trkpt>
      <trkpt lat="45.46086" lon="4.7581">
        <ele>172.7</ele>
        <time>2019-10-19T06:20:43Z</time>
      </trkpt>
      <trkpt lat="45.46089" lon="4.75801">
        <ele>174.4</ele>
        <time>2019-10-19T06:20:49Z</time>
      </trkpt>
      <trkpt lat="45.4609" lon="4.7578">
        <ele>178.2</ele>
        <time>2019-10-19T06:21:02Z</time>
      </trkpt>
      <trkpt lat="45.46092" lon="4.7577">
        <ele>180.2</ele>
        <time>2019-10-19T06:21:07Z</time>
      </trkpt>
      <trkpt lat="45.46091" lon="4.75766">
        <ele>181.1</ele>
        <time>2019-10-19T06:21:09Z</time>
      </trkpt>
      <trkpt lat="45.46087" lon="4.75756">
        <ele>183.3</ele>
        <time>2019-10-19T06:21:14Z</time>
      </trkpt>
      <trkpt lat="45.46084" lon="4.75745">
        <ele>185.5</ele>
        <time>2019-10-19T06:21:20Z</time>
      </trkpt>
      <trkpt lat="45.46079" lon="4.75737">
        <ele>187.2</ele>
        <time>2019-10-19T06:21:24Z</time>
      </trkpt>
      <trkpt lat="45.46061" lon="4.75733">
        <ele>190.4</ele>
        <time>2019-10-19T06:21:34Z</time>
      </trkpt>
      <trkpt lat="45.46058" lon="4.75719">
        <ele>191.8</ele>
        <time>2019-10-19T06:21:41Z</time>
      </trkpt>
      <trkpt lat="45.46055" lon="4.75708">
        <ele>192.9</ele>
        <time>2019-10-19T06:21:46Z</time>
      </trkpt>
      <trkpt lat="45.46057" lon="4.7569">
        <ele>194.6</ele>
        <time>2019-10-19T06:21:55Z</time>
      </trkpt>
      <trkpt lat="45.46053" lon="4.75675">
        <ele>196.2</ele>
        <time>2019-10-19T06:22:06Z</time>
      </trkpt>
      <trkpt lat="45.4605" lon="4.75687">
        <ele>197.8</ele>
        <time>2019-10-19T06:22:13Z</time>
      </trkpt>
      <trkpt lat="45.46055" lon="4.75714">
        <ele>201.1</ele>
        <time>2019-10-19T06:22:25Z</time>
      </trkpt>
      <trkpt lat="45.46061" lon="4.75738">
        <ele>202.8</ele>
        <time>2019-10-19T06:22:37Z</time>
      </trkpt>
      <trkpt lat="45.4607" lon="4.75761">
        <ele>203.7</ele>
        <time>2019-10-19T06:22:49Z</time>
      </trkpt>
      <trkpt lat="45.46067" lon="4.75771">
        <ele>204.4</ele>
        <time>2019-10-19T06:22:55Z</time>
      </trkpt>
      <trkpt lat="45.46059" lon="4.75761">
        <ele>205.9</ele>
        <time>2019-10-19T06:23:07Z</time>
      </trkpt>
      <trkpt lat="45.46056" lon="4.75751">
        <ele>207.1</ele>
        <time>2019-10-19T06:23:13Z</time>
      </trkpt>
      <trkpt lat="45.46044" lon="4.75733">
        <ele>210</ele>
        <time>2019-10-19T06:23:25Z</time>
      </trkpt>
      <trkpt lat="45.46034" lon="4.75711">
        <ele>211.7</ele>
        <time>2019-10-19T06:23:37Z</time>
      </trkpt>
      <trkpt lat="45.46033" lon="4.75705">
        <ele>212</ele>
        <time>2019-10-19T06:23:41Z</time>
      </trkpt>
      <trkpt lat="45.46028" lon="4.75696">
        <ele>212.7</ele>
        <time>2019-10-19T06:23:47Z</time>
      </trkpt>
      <trkpt lat="45.46028" lon="4.75689">
        <ele>213.2</ele>
        <time>2019-10-19T06:23:52Z</time>
      </trkpt>
      <trkpt lat="45.46026" lon="4.75662">
        <ele>215.7</ele>
        <time>2019-10-19T06:24:07Z</time>
      </trkpt>
      <trkpt lat="45.46027" lon="4.75657">
        <ele>216.2</ele>
        <time>2019-10-19T06:24:10Z</time>
      </trkpt>
      <trkpt lat="45.46028" lon="4.75655">
        <ele>216.5</ele>
        <time>2019-10-19T06:24:12Z</time>
      </trkpt>
      <trkpt lat="45.4603" lon="4.75651">
        <ele>217.2</ele>
        <time>2019-10-19T06:24:15Z</time>
      </trkpt>
      <trkpt lat="45.4603" lon="4.75648">
        <ele>217.5</ele>
        <time>2019-10-19T06:24:17Z</time>
      </trkpt>
      <trkpt lat="45.46029" lon="4.75628">
        <ele>220.2</ele>
        <time>2019-10-19T06:24:28Z</time>
      </trkpt>
      <trkpt lat="45.46026" lon="4.75613">
        <ele>222.5</ele>
        <time>2019-10-19T06:24:37Z</time>
      </trkpt>
      <trkpt lat="45.46026" lon="4.75589">
        <ele>225.8</ele>
        <time>2019-10-19T06:24:51Z</time>
      </trkpt>
      <trkpt lat="45.46023" lon="4.75564">
        <ele>228.7</ele>
        <time>2019-10-19T06:25:04Z</time>
      </trkpt>
      <trkpt lat="45.46026" lon="4.75537">
        <ele>230.9</ele>
        <time>2019-10-19T06:25:15Z</time>
      </trkpt>
      <trkpt lat="45.46029" lon="4.75513">
        <ele>233.3</ele>
        <time>2019-10-19T06:25:27Z</time>
      </trkpt>
      <trkpt lat="45.46032" lon="4.75496">
        <ele>234.8</ele>
        <time>2019-10-19T06:25:36Z</time>
      </trkpt>
      <trkpt lat="45.4604" lon="4.75471">
        <ele>237.4</ele>
        <time>2019-10-19T06:25:48Z</time>
      </trkpt>
      <trkpt lat="45.46048" lon="4.75446">
        <ele>239.6</ele>
        <time>2019-10-19T06:26:00Z</time>
      </trkpt>
      <trkpt lat="45.46056" lon="4.7542">
        <ele>241.7</ele>
        <time>2019-10-19T06:26:12Z</time>
      </trkpt>
      <trkpt lat="45.46065" lon="4.75398">
        <ele>244.2</ele>
        <time>2019-10-19T06:26:24Z</time>
      </trkpt>
      <trkpt lat="45.46077" lon="4.7538">
        <ele>246.5</ele>
        <time>2019-10-19T06:26:37Z</time>
      </trkpt>
      <trkpt lat="45.46087" lon="4.75367">
        <ele>248.6</ele>
        <time>2019-10-19T06:26:47Z</time>
      </trkpt>
      <trkpt lat="45.46099" lon="4.75348">
        <ele>251.4</ele>
        <time>2019-10-19T06:26:59Z</time>
      </trkpt>
      <trkpt lat="45.46101" lon="4.75347">
        <ele>251.6</ele>
        <time>2019-10-19T06:27:00Z</time>
      </trkpt>
      <trkpt lat="45.46108" lon="4.75324">
        <ele>254.1</ele>
        <time>2019-10-19T06:27:12Z</time>
      </trkpt>
      <trkpt lat="45.46107" lon="4.75322">
        <ele>254.3</ele>
        <time>2019-10-19T06:27:13Z</time>
      </trkpt>
      <trkpt lat="45.46107" lon="4.75302">
        <ele>256.5</ele>
        <time>2019-10-19T06:27:22Z</time>
      </trkpt>
      <trkpt lat="45.46118" lon="4.75281">
        <ele>258.9</ele>
        <time>2019-10-19T06:27:34Z</time>
      </trkpt>
      <trkpt lat="45.46127" lon="4.75258">
        <ele>261.6</ele>
        <time>2019-10-19T06:27:47Z</time>
      </trkpt>
      <trkpt lat="45.46136" lon="4.75234">
        <ele>264.2</ele>
        <time>2019-10-19T06:27:58Z</time>
      </trkpt>
      <trkpt lat="45.46135" lon="4.75208">
        <ele>265.9</ele>
        <time>2019-10-19T06:28:09Z</time>
      </trkpt>
      <trkpt lat="45.46137" lon="4.75197">
        <ele>266.7</ele>
        <time>2019-10-19T06:28:15Z</time>
      </trkpt>
      <trkpt lat="45.46137" lon="4.75177">
        <ele>268.5</ele>
        <time>2019-10-19T06:28:24Z</time>
      </trkpt>
      <trkpt lat="45.46134" lon="4.75151">
        <ele>270.8</ele>
        <time>2019-10-19T06:28:34Z</time>
      </trkpt>
      <trkpt lat="45.46127" lon="4.75125">
        <ele>272.3</ele>
        <time>2019-10-19T06:28:42Z</time>
      </trkpt>
      <trkpt lat="45.46121" lon="4.75107">
        <ele>273.6</ele>
        <time>2019-10-19T06:28:49Z</time>
      </trkpt>
      <trkpt lat="45.4612" lon="4.75086">
        <ele>275.1</ele>
        <time>2019-10-19T06:28:59Z</time>
      </trkpt>
      <trkpt lat="45.46121" lon="4.75082">
        <ele>275.5</ele>
        <time>2019-10-19T06:29:01Z</time>
      </trkpt>
      <trkpt lat="45.46127" lon="4.75076">
        <ele>277.4</ele>
        <time>2019-10-19T06:29:06Z</time>
      </trkpt>
      <trkpt lat="45.46143" lon="4.75063">
        <ele>280.1</ele>
        <time>2019-10-19T06:29:18Z</time>
      </trkpt>
      <trkpt lat="45.46159" lon="4.75043">
        <ele>282.9</ele>
        <time>2019-10-19T06:29:34Z</time>
      </trkpt>
      <trkpt lat="45.46172" lon="4.75025">
        <ele>285</ele>
        <time>2019-10-19T06:29:51Z</time>
      </trkpt>
      <trkpt lat="45.46187" lon="4.75007">
        <ele>287.4</ele>
        <time>2019-10-19T06:30:06Z</time>
      </trkpt>
      <trkpt lat="45.462" lon="4.74986">
        <ele>289.9</ele>
        <time>2019-10-19T06:30:20Z</time>
      </trkpt>
      <trkpt lat="45.46211" lon="4.74965">
        <ele>291.9</ele>
        <time>2019-10-19T06:30:30Z</time>
      </trkpt>
      <trkpt lat="45.46221" lon="4.74944">
        <ele>294.1</ele>
        <time>2019-10-19T06:30:41Z</time>
      </trkpt>
      <trkpt lat="45.46231" lon="4.74921">
        <ele>295.9</ele>
        <time>2019-10-19T06:30:51Z</time>
      </trkpt>
      <trkpt lat="45.46237" lon="4.74895">
        <ele>297.3</ele>
        <time>2019-10-19T06:31:01Z</time>
      </trkpt>
      <trkpt lat="45.46242" lon="4.7487">
        <ele>298.3</ele>
        <time>2019-10-19T06:31:10Z</time>
      </trkpt>
      <trkpt lat="45.46246" lon="4.74845">
        <ele>300.2</ele>
        <time>2019-10-19T06:31:19Z</time>
      </trkpt>
      <trkpt lat="45.46246" lon="4.74819">
        <ele>301.7</ele>
        <time>2019-10-19T06:31:31Z</time>
      </trkpt>
      <trkpt lat="45.46247" lon="4.74805">
        <ele>302.3</ele>
        <time>2019-10-19T06:31:38Z</time>
      </trkpt>
      <trkpt lat="45.46248" lon="4.74779">
        <ele>303.3</ele>
        <time>2019-10-19T06:31:51Z</time>
      </trkpt>
      <trkpt lat="45.46249" lon="4.74767">
        <ele>304</ele>
        <time>2019-10-19T06:31:57Z</time>
      </trkpt>
      <trkpt lat="45.46251" lon="4.74757">
        <ele>304.3</ele>
        <time>2019-10-19T06:32:02Z</time>
      </trkpt>
      <trkpt lat="45.46253" lon="4.74745">
        <ele>304.7</ele>
        <time>2019-10-19T06:32:08Z</time>
      </trkpt>
      <trkpt lat="45.46256" lon="4.74719">
        <ele>305.5</ele>
        <time>2019-10-19T06:32:21Z</time>
      </trkpt>
      <trkpt lat="45.46259" lon="4.74693">
        <ele>306.3</ele>
        <time>2019-10-19T06:32:34Z</time>
      </trkpt>
      <trkpt lat="45.46264" lon="4.74668">
        <ele>306.6</ele>
        <time>2019-10-19T06:32:47Z</time>
      </trkpt>
      <trkpt lat="45.46265" lon="4.74656">
        <ele>306.7</ele>
        <time>2019-10-19T06:32:53Z</time>
      </trkpt>
      <trkpt lat="45.4627" lon="4.7463">
        <ele>307.1</ele>
        <time>2019-10-19T06:33:07Z</time>
      </trkpt>
      <trkpt lat="45.46274" lon="4.74602">
        <ele>307.8</ele>
        <time>2019-10-19T06:33:21Z</time>
      </trkpt>
      <trkpt lat="45.46275" lon="4.74592">
        <ele>308</ele>
        <time>2019-10-19T06:33:26Z</time>
      </trkpt>
      <trkpt lat="45.46276" lon="4.74581">
        <ele>308.2</ele>
        <time>2019-10-19T06:33:32Z</time>
      </trkpt>
      <trkpt lat="45.46278" lon="4.74554">
        <ele>308.8</ele>
        <time>2019-10-19T06:33:45Z</time>
      </trkpt>
      <trkpt lat="45.46275" lon="4.74529">
        <ele>309.4</ele>
        <time>2019-10-19T06:33:59Z</time>
      </trkpt>
      <trkpt lat="45.46272" lon="4.74514">
        <ele>309.9</ele>
        <time>2019-10-19T06:34:07Z</time>
      </trkpt>
      <trkpt lat="45.4627" lon="4.74509">
        <ele>310.1</ele>
        <time>2019-10-19T06:34:10Z</time>
      </trkpt>
      <trkpt lat="45.46269" lon="4.74504">
        <ele>310.2</ele>
        <time>2019-10-19T06:34:13Z</time>
      </trkpt>
      <trkpt lat="45.46266" lon="4.74477">
        <ele>310.8</ele>
        <time>2019-10-19T06:34:28Z</time>
      </trkpt>
      <trkpt lat="45.46259" lon="4.74451">
        <ele>311.4</ele>
        <time>2019-10-19T06:34:42Z</time>
      </trkpt>
      <trkpt lat="45.46255" lon="4.74423">
        <ele>312.1</ele>
        <time>2019-10-19T06:34:51Z</time>
      </trkpt>
      <trkpt lat="45.46254" lon="4.74397">
        <ele>312.9</ele>
        <time>2019-10-19T06:34:59Z</time>
      </trkpt>
      <trkpt lat="45.46254" lon="4.74369">
        <ele>313.9</ele>
        <time>2019-10-19T06:35:08Z</time>
      </trkpt>
      <trkpt lat="45.46254" lon="4.74341">
        <ele>314.7</ele>
        <time>2019-10-19T06:35:17Z</time>
      </trkpt>
      <trkpt lat="45.46256" lon="4.74315">
        <ele>315.8</ele>
        <time>2019-10-19T06:35:26Z</time>
      </trkpt>
      <trkpt lat="45.46263" lon="4.74289">
        <ele>317.1</ele>
        <time>2019-10-19T06:35:36Z</time>
      </trkpt>
      <trkpt lat="45.46273" lon="4.74266">
        <ele>318.4</ele>
        <time>2019-10-19T06:35:46Z</time>
      </trkpt>
      <trkpt lat="45.46283" lon="4.74242">
        <ele>319.3</ele>
        <time>2019-10-19T06:35:55Z</time>
      </trkpt>
      <trkpt lat="45.46293" lon="4.74221">
        <ele>320</ele>
        <time>2019-10-19T06:36:04Z</time>
      </trkpt>
      <trkpt lat="45.46305" lon="4.74199">
        <ele>320.6</ele>
        <time>2019-10-19T06:36:15Z</time>
      </trkpt>
      <trkpt lat="45.46316" lon="4.74177">
        <ele>321.6</ele>
        <time>2019-10-19T06:36:24Z</time>
      </trkpt>
      <trkpt lat="45.46326" lon="4.74153">
        <ele>322.3</ele>
        <time>2019-10-19T06:36:34Z</time>
      </trkpt>
      <trkpt lat="45.46333" lon="4.74127">
        <ele>323</ele>
        <time>2019-10-19T06:36:43Z</time>
      </trkpt>
      <trkpt lat="45.46337" lon="4.74099">
        <ele>323.8</ele>
        <time>2019-10-19T06:36:52Z</time>
      </trkpt>
      <trkpt lat="45.4634" lon="4.74073">
        <ele>324.5</ele>
        <time>2019-10-19T06:37:01Z</time>
      </trkpt>
      <trkpt lat="45.46343" lon="4.74047">
        <ele>325.2</ele>
        <time>2019-10-19T06:37:10Z</time>
      </trkpt>
      <trkpt lat="45.4635" lon="4.74022">
        <ele>326.2</ele>
        <time>2019-10-19T06:37:19Z</time>
      </trkpt>
      <trkpt lat="45.46357" lon="4.73998">
        <ele>327.2</ele>
        <time>2019-10-19T06:37:28Z</time>
      </trkpt>
      <trkpt lat="45.46366" lon="4.73976">
        <ele>328.2</ele>
        <time>2019-10-19T06:37:37Z</time>
      </trkpt>
      <trkpt lat="45.46374" lon="4.73952">
        <ele>329.1</ele>
        <time>2019-10-19T06:37:46Z</time>
      </trkpt>
      <trkpt lat="45.46381" lon="4.73926">
        <ele>330</ele>
        <time>2019-10-19T06:37:55Z</time>
      </trkpt>
      <trkpt lat="45.46386" lon="4.739">
        <ele>331</ele>
        <time>2019-10-19T06:38:04Z</time>
      </trkpt>
      <trkpt lat="45.46389" lon="4.73872">
        <ele>331.7</ele>
        <time>2019-10-19T06:38:14Z</time>
      </trkpt>
      <trkpt lat="45.4639" lon="4.73845">
        <ele>332.5</ele>
        <time>2019-10-19T06:38:24Z</time>
      </trkpt>
      <trkpt lat="45.4639" lon="4.73819">
        <ele>333.3</ele>
        <time>2019-10-19T06:38:33Z</time>
      </trkpt>
      <trkpt lat="45.46388" lon="4.73801">
        <ele>334</ele>
        <time>2019-10-19T06:38:39Z</time>
      </trkpt>
      <trkpt lat="45.46387" lon="4.7379">
        <ele>334.3</ele>
        <time>2019-10-19T06:38:43Z</time>
      </trkpt>
      <trkpt lat="45.46388" lon="4.73763">
        <ele>335.1</ele>
        <time>2019-10-19T06:38:53Z</time>
      </trkpt>
      <trkpt lat="45.46391" lon="4.73736">
        <ele>336.3</ele>
        <time>2019-10-19T06:39:04Z</time>
      </trkpt>
      <trkpt lat="45.46394" lon="4.73709">
        <ele>337.9</ele>
        <time>2019-10-19T06:39:15Z</time>
      </trkpt>
      <trkpt lat="45.46397" lon="4.73682">
        <ele>339.7</ele>
        <time>2019-10-19T06:39:25Z</time>
      </trkpt>
      <trkpt lat="45.46399" lon="4.73655">
        <ele>341</ele>
        <time>2019-10-19T06:39:35Z</time>
      </trkpt>
      <trkpt lat="45.46401" lon="4.73628">
        <ele>342.6</ele>
        <time>2019-10-19T06:39:45Z</time>
      </trkpt>
      <trkpt lat="45.46403" lon="4.736">
        <ele>344.3</ele>
        <time>2019-10-19T06:39:55Z</time>
      </trkpt>
      <trkpt lat="45.46406" lon="4.73573">
        <ele>345.3</ele>
        <time>2019-10-19T06:40:05Z</time>
      </trkpt>
      <trkpt lat="45.46409" lon="4.73547">
        <ele>346.2</ele>
        <time>2019-10-19T06:40:15Z</time>
      </trkpt>
      <trkpt lat="45.46411" lon="4.73521">
        <ele>346.6</ele>
        <time>2019-10-19T06:40:24Z</time>
      </trkpt>
      <trkpt lat="45.46411" lon="4.73495">
        <ele>346.9</ele>
        <time>2019-10-19T06:40:33Z</time>
      </trkpt>
      <trkpt lat="45.4641" lon="4.73468">
        <ele>347.2</ele>
        <time>2019-10-19T06:40:42Z</time>
      </trkpt>
      <trkpt lat="45.46409" lon="4.7344">
        <ele>347.7</ele>
        <time>2019-10-19T06:40:51Z</time>
      </trkpt>
      <trkpt lat="45.46406" lon="4.73415">
        <ele>348.4</ele>
        <time>2019-10-19T06:40:59Z</time>
      </trkpt>
      <trkpt lat="45.46407" lon="4.73387">
        <ele>349.3</ele>
        <time>2019-10-19T06:41:08Z</time>
      </trkpt>
      <trkpt lat="45.46409" lon="4.7336">
        <ele>350</ele>
        <time>2019-10-19T06:41:17Z</time>
      </trkpt>
      <trkpt lat="45.46411" lon="4.73333">
        <ele>350.7</ele>
        <time>2019-10-19T06:41:26Z</time>
      </trkpt>
      <trkpt lat="45.46414" lon="4.73307">
        <ele>351.4</ele>
        <time>2019-10-19T06:41:35Z</time>
      </trkpt>
      <trkpt lat="45.46416" lon="4.7328">
        <ele>352.1</ele>
        <time>2019-10-19T06:41:45Z</time>
      </trkpt>
      <trkpt lat="45.46416" lon="4.73276">
        <ele>352.2</ele>
        <time>2019-10-19T06:41:46Z</time>
      </trkpt>
      <trkpt lat="45.46417" lon="4.7325">
        <ele>352.7</ele>
        <time>2019-10-19T06:41:55Z</time>
      </trkpt>
      <trkpt lat="45.46409" lon="4.73227">
        <ele>353.2</ele>
        <time>2019-10-19T06:42:03Z</time>
      </trkpt>
      <trkpt lat="45.46398" lon="4.73204">
        <ele>353.6</ele>
        <time>2019-10-19T06:42:12Z</time>
      </trkpt>
      <trkpt lat="45.46387" lon="4.73184">
        <ele>354</ele>
        <time>2019-10-19T06:42:20Z</time>
      </trkpt>
      <trkpt lat="45.46373" lon="4.73165">
        <ele>354.2</ele>
        <time>2019-10-19T06:42:29Z</time>
      </trkpt>
      <trkpt lat="45.46358" lon="4.73147">
        <ele>354.6</ele>
        <time>2019-10-19T06:42:38Z</time>
      </trkpt>
      <trkpt lat="45.46345" lon="4.73126">
        <ele>354.8</ele>
        <time>2019-10-19T06:42:47Z</time>
      </trkpt>
      <trkpt lat="45.46333" lon="4.73104">
        <ele>355.7</ele>
        <time>2019-10-19T06:42:56Z</time>
      </trkpt>
      <trkpt lat="45.46322" lon="4.73081">
        <ele>356.5</ele>
        <time>2019-10-19T06:43:05Z</time>
      </trkpt>
      <trkpt lat="45.46313" lon="4.73057">
        <ele>357.4</ele>
        <time>2019-10-19T06:43:14Z</time>
      </trkpt>
      <trkpt lat="45.46302" lon="4.73034">
        <ele>358.4</ele>
        <time>2019-10-19T06:43:23Z</time>
      </trkpt>
      <trkpt lat="45.4629" lon="4.73013">
        <ele>358.9</ele>
        <time>2019-10-19T06:43:32Z</time>
      </trkpt>
      <trkpt lat="45.46283" lon="4.72997">
        <ele>359.1</ele>
        <time>2019-10-19T06:43:41Z</time>
      </trkpt>
      <trkpt lat="45.46278" lon="4.72973">
        <ele>359</ele>
        <time>2019-10-19T06:44:04Z</time>
      </trkpt>
      <trkpt lat="45.46266" lon="4.72945">
        <ele>358.9</ele>
        <time>2019-10-19T06:44:13Z</time>
      </trkpt>
      <trkpt lat="45.46256" lon="4.72922">
        <ele>358.9</ele>
        <time>2019-10-19T06:44:21Z</time>
      </trkpt>
      <trkpt lat="45.46248" lon="4.72899">
        <ele>359</ele>
        <time>2019-10-19T06:44:29Z</time>
      </trkpt>
      <trkpt lat="45.46251" lon="4.72874">
        <ele>359.2</ele>
        <time>2019-10-19T06:44:37Z</time>
      </trkpt>
      <trkpt lat="45.46261" lon="4.72852">
        <ele>359.9</ele>
        <time>2019-10-19T06:44:45Z</time>
      </trkpt>
      <trkpt lat="45.46269" lon="4.72829">
        <ele>361.1</ele>
        <time>2019-10-19T06:44:53Z</time>
      </trkpt>
      <trkpt lat="45.46277" lon="4.72803">
        <ele>362.2</ele>
        <time>2019-10-19T06:45:02Z</time>
      </trkpt>
      <trkpt lat="45.46284" lon="4.72777">
        <ele>362.9</ele>
        <time>2019-10-19T06:45:11Z</time>
      </trkpt>
      <trkpt lat="45.46291" lon="4.72752">
        <ele>363.9</ele>
        <time>2019-10-19T06:45:20Z</time>
      </trkpt>
      <trkpt lat="45.46298" lon="4.72728">
        <ele>364.8</ele>
        <time>2019-10-19T06:45:29Z</time>
      </trkpt>
      <trkpt lat="45.46307" lon="4.72704">
        <ele>366.2</ele>
        <time>2019-10-19T06:45:38Z</time>
      </trkpt>
      <trkpt lat="45.46314" lon="4.72679">
        <ele>367.3</ele>
        <time>2019-10-19T06:45:47Z</time>
      </trkpt>
      <trkpt lat="45.46317" lon="4.72652">
        <ele>368</ele>
        <time>2019-10-19T06:45:57Z</time>
      </trkpt>
      <trkpt lat="45.4632" lon="4.72627">
        <ele>369.2</ele>
        <time>2019-10-19T06:46:06Z</time>
      </trkpt>
      <trkpt lat="45.46321" lon="4.72598">
        <ele>370.4</ele>
        <time>2019-10-19T06:46:16Z</time>
      </trkpt>
      <trkpt lat="45.46324" lon="4.72573">
        <ele>371.3</ele>
        <time>2019-10-19T06:46:25Z</time>
      </trkpt>
      <trkpt lat="45.46331" lon="4.72548">
        <ele>372.5</ele>
        <time>2019-10-19T06:46:35Z</time>
      </trkpt>
      <trkpt lat="45.4634" lon="4.72523">
        <ele>373.7</ele>
        <time>2019-10-19T06:46:44Z</time>
      </trkpt>
      <trkpt lat="45.46346" lon="4.72499">
        <ele>375</ele>
        <time>2019-10-19T06:46:53Z</time>
      </trkpt>
      <trkpt lat="45.46343" lon="4.72472">
        <ele>376</ele>
        <time>2019-10-19T06:47:03Z</time>
      </trkpt>
      <trkpt lat="45.46338" lon="4.72445">
        <ele>376.8</ele>
        <time>2019-10-19T06:47:13Z</time>
      </trkpt>
      <trkpt lat="45.46334" lon="4.72418">
        <ele>377.9</ele>
        <time>2019-10-19T06:47:23Z</time>
      </trkpt>
      <trkpt lat="45.46329" lon="4.72391">
        <ele>379.3</ele>
        <time>2019-10-19T06:47:32Z</time>
      </trkpt>
      <trkpt lat="45.46326" lon="4.72364">
        <ele>381.2</ele>
        <time>2019-10-19T06:47:41Z</time>
      </trkpt>
      <trkpt lat="45.46323" lon="4.72338">
        <ele>383.4</ele>
        <time>2019-10-19T06:47:50Z</time>
      </trkpt>
      <trkpt lat="45.46321" lon="4.72312">
        <ele>385.8</ele>
        <time>2019-10-19T06:47:59Z</time>
      </trkpt>
      <trkpt lat="45.46327" lon="4.72286">
        <ele>388.7</ele>
        <time>2019-10-19T06:48:09Z</time>
      </trkpt>
      <trkpt lat="45.46336" lon="4.72263">
        <ele>391.4</ele>
        <time>2019-10-19T06:48:19Z</time>
      </trkpt>
      <trkpt lat="45.46346" lon="4.7224">
        <ele>394.2</ele>
        <time>2019-10-19T06:48:30Z</time>
      </trkpt>
      <trkpt lat="45.46352" lon="4.72215">
        <ele>396.8</ele>
        <time>2019-10-19T06:48:41Z</time>
      </trkpt>
      <trkpt lat="45.4635" lon="4.72189">
        <ele>398.3</ele>
        <time>2019-10-19T06:48:53Z</time>
      </trkpt>
      <trkpt lat="45.46349" lon="4.72162">
        <ele>399.4</ele>
        <time>2019-10-19T06:49:06Z</time>
      </trkpt>
      <trkpt lat="45.4635" lon="4.72136">
        <ele>400.3</ele>
        <time>2019-10-19T06:49:19Z</time>
      </trkpt>
      <trkpt lat="45.4635" lon="4.72118">
        <ele>400.8</ele>
        <time>2019-10-19T06:49:28Z</time>
      </trkpt>
      <trkpt lat="45.4635" lon="4.72087">
        <ele>401.6</ele>
        <time>2019-10-19T06:49:39Z</time>
      </trkpt>
      <trkpt lat="45.46349" lon="4.72059">
        <ele>401.9</ele>
        <time>2019-10-19T06:49:46Z</time>
      </trkpt>
      <trkpt lat="45.46348" lon="4.72031">
        <ele>401.8</ele>
        <time>2019-10-19T06:49:54Z</time>
      </trkpt>
      <trkpt lat="45.46345" lon="4.72004">
        <ele>401.7</ele>
        <time>2019-10-19T06:50:02Z</time>
      </trkpt>
      <trkpt lat="45.46342" lon="4.71978">
        <ele>401.7</ele>
        <time>2019-10-19T06:50:10Z</time>
      </trkpt>
      <trkpt lat="45.46338" lon="4.71952">
        <ele>402</ele>
        <time>2019-10-19T06:50:18Z</time>
      </trkpt>
      <trkpt lat="45.46335" lon="4.71926">
        <ele>402.3</ele>
        <time>2019-10-19T06:50:26Z</time>
      </trkpt>
      <trkpt lat="45.4633" lon="4.719">
        <ele>402.5</ele>
        <time>2019-10-19T06:50:34Z</time>
      </trkpt>
      <trkpt lat="45.46333" lon="4.71872">
        <ele>402.7</ele>
        <time>2019-10-19T06:50:43Z</time>
      </trkpt>
      <trkpt lat="45.46342" lon="4.71847">
        <ele>404.4</ele>
        <time>2019-10-19T06:50:52Z</time>
      </trkpt>
      <trkpt lat="45.46353" lon="4.71824">
        <ele>406.7</ele>
        <time>2019-10-19T06:51:01Z</time>
      </trkpt>
      <trkpt lat="45.46363" lon="4.718">
        <ele>409</ele>
        <time>2019-10-19T06:51:10Z</time>
      </trkpt>
      <trkpt lat="45.46371" lon="4.71776">
        <ele>410.9</ele>
        <time>2019-10-19T06:51:19Z</time>
      </trkpt>
      <trkpt lat="45.46381" lon="4.71753">
        <ele>413.5</ele>
        <time>2019-10-19T06:51:29Z</time>
      </trkpt>
      <trkpt lat="45.46391" lon="4.7173">
        <ele>416.3</ele>
        <time>2019-10-19T06:51:39Z</time>
      </trkpt>
      <trkpt lat="45.464" lon="4.71706">
        <ele>419</ele>
        <time>2019-10-19T06:51:50Z</time>
      </trkpt>
      <trkpt lat="45.4641" lon="4.71682">
        <ele>421</ele>
        <time>2019-10-19T06:52:01Z</time>
      </trkpt>
      <trkpt lat="45.46417" lon="4.71658">
        <ele>422.8</ele>
        <time>2019-10-19T06:52:12Z</time>
      </trkpt>
      <trkpt lat="45.46424" lon="4.71635">
        <ele>424.8</ele>
        <time>2019-10-19T06:52:24Z</time>
      </trkpt>
      <trkpt lat="45.46434" lon="4.71613">
        <ele>427.3</ele>
        <time>2019-10-19T06:52:37Z</time>
      </trkpt>
      <trkpt lat="45.46445" lon="4.71592">
        <ele>429.9</ele>
        <time>2019-10-19T06:52:50Z</time>
      </trkpt>
      <trkpt lat="45.46448" lon="4.71576">
        <ele>431.7</ele>
        <time>2019-10-19T06:52:59Z</time>
      </trkpt>
      <trkpt lat="45.46444" lon="4.71551">
        <ele>434.1</ele>
        <time>2019-10-19T06:53:15Z</time>
      </trkpt>
      <trkpt lat="45.46444" lon="4.71548">
        <ele>434.3</ele>
        <time>2019-10-19T06:53:17Z</time>
      </trkpt>
      <trkpt lat="45.46452" lon="4.71525">
        <ele>436.4</ele>
        <time>2019-10-19T06:53:32Z</time>
      </trkpt>
      <trkpt lat="45.46468" lon="4.7151">
        <ele>439.3</ele>
        <time>2019-10-19T06:53:49Z</time>
      </trkpt>
      <trkpt lat="45.4647" lon="4.71509">
        <ele>439.6</ele>
        <time>2019-10-19T06:53:51Z</time>
      </trkpt>
      <trkpt lat="45.46476" lon="4.71498">
        <ele>440.9</ele>
        <time>2019-10-19T06:53:59Z</time>
      </trkpt>
      <trkpt lat="45.46481" lon="4.71491">
        <ele>442</ele>
        <time>2019-10-19T06:54:04Z</time>
      </trkpt>
      <trkpt lat="45.46494" lon="4.7148">
        <ele>444.4</ele>
        <time>2019-10-19T06:54:15Z</time>
      </trkpt>
      <trkpt lat="45.46498" lon="4.71477">
        <ele>445</ele>
        <time>2019-10-19T06:54:18Z</time>
      </trkpt>
      <trkpt lat="45.46504" lon="4.71468">
        <ele>446.3</ele>
        <time>2019-10-19T06:54:25Z</time>
      </trkpt>
      <trkpt lat="45.46512" lon="4.71458">
        <ele>447.4</ele>
        <time>2019-10-19T06:54:35Z</time>
      </trkpt>
      <trkpt lat="45.46518" lon="4.71461">
        <ele>448.2</ele>
        <time>2019-10-19T06:54:42Z</time>
      </trkpt>
      <trkpt lat="45.4653" lon="4.71467">
        <ele>449.1</ele>
        <time>2019-10-19T06:54:54Z</time>
      </trkpt>
      <trkpt lat="45.46532" lon="4.71463">
        <ele>449.4</ele>
        <time>2019-10-19T06:54:58Z</time>
      </trkpt>
      <trkpt lat="45.46533" lon="4.71462">
        <ele>449.5</ele>
        <time>2019-10-19T06:54:59Z</time>
      </trkpt>
      <trkpt lat="45.46538" lon="4.71455">
        <ele>450.1</ele>
        <time>2019-10-19T06:55:05Z</time>
      </trkpt>
      <trkpt lat="45.46542" lon="4.71447">
        <ele>450.6</ele>
        <time>2019-10-19T06:55:09Z</time>
      </trkpt>
      <trkpt lat="45.46546" lon="4.71439">
        <ele>451.3</ele>
        <time>2019-10-19T06:55:14Z</time>
      </trkpt>
      <trkpt lat="45.4656" lon="4.71421">
        <ele>453.4</ele>
        <time>2019-10-19T06:55:26Z</time>
      </trkpt>
      <trkpt lat="45.46573" lon="4.71404">
        <ele>455.1</ele>
        <time>2019-10-19T06:55:37Z</time>
      </trkpt>
      <trkpt lat="45.46589" lon="4.71384">
        <ele>456.2</ele>
        <time>2019-10-19T06:55:48Z</time>
      </trkpt>
      <trkpt lat="45.46604" lon="4.71368">
        <ele>457.2</ele>
        <time>2019-10-19T06:55:57Z</time>
      </trkpt>
      <trkpt lat="45.46616" lon="4.71348">
        <ele>458.5</ele>
        <time>2019-10-19T06:56:04Z</time>
      </trkpt>
      <trkpt lat="45.46629" lon="4.71327">
        <ele>460.3</ele>
        <time>2019-10-19T06:56:13Z</time>
      </trkpt>
      <trkpt lat="45.46638" lon="4.71302">
        <ele>462</ele>
        <time>2019-10-19T06:56:23Z</time>
      </trkpt>
      <trkpt lat="45.46636" lon="4.71277">
        <ele>463.5</ele>
        <time>2019-10-19T06:56:34Z</time>
      </trkpt>
      <trkpt lat="45.46633" lon="4.71251">
        <ele>465.2</ele>
        <time>2019-10-19T06:56:46Z</time>
      </trkpt>
      <trkpt lat="45.46635" lon="4.71224">
        <ele>467.2</ele>
        <time>2019-10-19T06:56:57Z</time>
      </trkpt>
      <trkpt lat="45.46639" lon="4.7121">
        <ele>468.4</ele>
        <time>2019-10-19T06:57:02Z</time>
      </trkpt>
      <trkpt lat="45.4664" lon="4.71193">
        <ele>469.5</ele>
        <time>2019-10-19T06:57:07Z</time>
      </trkpt>
      <trkpt lat="45.4664" lon="4.71169">
        <ele>470.9</ele>
        <time>2019-10-19T06:57:14Z</time>
      </trkpt>
      <trkpt lat="45.46643" lon="4.71144">
        <ele>472.1</ele>
        <time>2019-10-19T06:57:21Z</time>
      </trkpt>
      <trkpt lat="45.46643" lon="4.71116">
        <ele>473</ele>
        <time>2019-10-19T06:57:29Z</time>
      </trkpt>
      <trkpt lat="45.46649" lon="4.71089">
        <ele>473.8</ele>
        <time>2019-10-19T06:57:37Z</time>
      </trkpt>
      <trkpt lat="45.46652" lon="4.71061">
        <ele>474.7</ele>
        <time>2019-10-19T06:57:46Z</time>
      </trkpt>
      <trkpt lat="45.46653" lon="4.71032">
        <ele>475.5</ele>
        <time>2019-10-19T06:57:55Z</time>
      </trkpt>
      <trkpt lat="45.46653" lon="4.71006">
        <ele>476.4</ele>
        <time>2019-10-19T06:58:04Z</time>
      </trkpt>
      <trkpt lat="45.46655" lon="4.70979">
        <ele>478</ele>
        <time>2019-10-19T06:58:15Z</time>
      </trkpt>
      <trkpt lat="45.46656" lon="4.70971">
        <ele>478.6</ele>
        <time>2019-10-19T06:58:19Z</time>
      </trkpt>
      <trkpt lat="45.46667" lon="4.70976">
        <ele>478.1</ele>
        <time>2019-10-19T06:58:29Z</time>
      </trkpt>
      <trkpt lat="45.46682" lon="4.70987">
        <ele>476.5</ele>
        <time>2019-10-19T06:58:41Z</time>
      </trkpt>
      <trkpt lat="45.46694" lon="4.70995">
        <ele>475.8</ele>
        <time>2019-10-19T06:58:51Z</time>
      </trkpt>
      <trkpt lat="45.46702" lon="4.70998">
        <ele>475.6</ele>
        <time>2019-10-19T06:58:58Z</time>
      </trkpt>
      <trkpt lat="45.46717" lon="4.70998">
        <ele>475.7</ele>
        <time>2019-10-19T06:59:06Z</time>
      </trkpt>
      <trkpt lat="45.46734" lon="4.71006">
        <ele>476</ele>
        <time>2019-10-19T06:59:16Z</time>
      </trkpt>
      <trkpt lat="45.46737" lon="4.71007">
        <ele>476</ele>
        <time>2019-10-19T06:59:17Z</time>
      </trkpt>
      <trkpt lat="45.46745" lon="4.71012">
        <ele>476.1</ele>
        <time>2019-10-19T06:59:21Z</time>
      </trkpt>
      <trkpt lat="45.46763" lon="4.7102">
        <ele>476.3</ele>
        <time>2019-10-19T06:59:30Z</time>
      </trkpt>
      <trkpt lat="45.46782" lon="4.71015">
        <ele>476.9</ele>
        <time>2019-10-19T06:59:40Z</time>
      </trkpt>
      <trkpt lat="45.46799" lon="4.71005">
        <ele>478.5</ele>
        <time>2019-10-19T06:59:52Z</time>
      </trkpt>
      <trkpt lat="45.46813" lon="4.7099">
        <ele>480</ele>
        <time>2019-10-19T07:00:02Z</time>
      </trkpt>
      <trkpt lat="45.46822" lon="4.70967">
        <ele>481.3</ele>
        <time>2019-10-19T07:00:11Z</time>
      </trkpt>
      <trkpt lat="45.46822" lon="4.70948">
        <ele>482.7</ele>
        <time>2019-10-19T07:00:21Z</time>
      </trkpt>
      <trkpt lat="45.46828" lon="4.70922">
        <ele>485.7</ele>
        <time>2019-10-19T07:00:35Z</time>
      </trkpt>
      <trkpt lat="45.46828" lon="4.70893">
        <ele>488.3</ele>
        <time>2019-10-19T07:00:50Z</time>
      </trkpt>
      <trkpt lat="45.46827" lon="4.70891">
        <ele>488.6</ele>
        <time>2019-10-19T07:00:51Z</time>
      </trkpt>
      <trkpt lat="45.46827" lon="4.70866">
        <ele>490.7</ele>
        <time>2019-10-19T07:01:04Z</time>
      </trkpt>
      <trkpt lat="45.46824" lon="4.70846">
        <ele>492.3</ele>
        <time>2019-10-19T07:01:13Z</time>
      </trkpt>
      <trkpt lat="45.46823" lon="4.70842">
        <ele>492.6</ele>
        <time>2019-10-19T07:01:15Z</time>
      </trkpt>
      <trkpt lat="45.4682" lon="4.70834">
        <ele>493.3</ele>
        <time>2019-10-19T07:01:20Z</time>
      </trkpt>
      <trkpt lat="45.46813" lon="4.70825">
        <ele>494.4</ele>
        <time>2019-10-19T07:01:25Z</time>
      </trkpt>
      <trkpt lat="45.4681" lon="4.70818">
        <ele>495.1</ele>
        <time>2019-10-19T07:01:29Z</time>
      </trkpt>
      <trkpt lat="45.46808" lon="4.70807">
        <ele>496.1</ele>
        <time>2019-10-19T07:01:33Z</time>
      </trkpt>
      <trkpt lat="45.46808" lon="4.70803">
        <ele>496.5</ele>
        <time>2019-10-19T07:01:35Z</time>
      </trkpt>
      <trkpt lat="45.46811" lon="4.70796">
        <ele>497.2</ele>
        <time>2019-10-19T07:01:39Z</time>
      </trkpt>
      <trkpt lat="45.4681" lon="4.70791">
        <ele>497.6</ele>
        <time>2019-10-19T07:01:41Z</time>
      </trkpt>
      <trkpt lat="45.46813" lon="4.70766">
        <ele>499.3</ele>
        <time>2019-10-19T07:01:54Z</time>
      </trkpt>
      <trkpt lat="45.46806" lon="4.70743">
        <ele>501.2</ele>
        <time>2019-10-19T07:02:03Z</time>
      </trkpt>
      <trkpt lat="45.46806" lon="4.70734">
        <ele>501.7</ele>
        <time>2019-10-19T07:02:07Z</time>
      </trkpt>
      <trkpt lat="45.46809" lon="4.70709">
        <ele>503.5</ele>
        <time>2019-10-19T07:02:19Z</time>
      </trkpt>
      <trkpt lat="45.46818" lon="4.70688">
        <ele>504.6</ele>
        <time>2019-10-19T07:02:29Z</time>
      </trkpt>
      <trkpt lat="45.46826" lon="4.70669">
        <ele>506.1</ele>
        <time>2019-10-19T07:02:39Z</time>
      </trkpt>
      <trkpt lat="45.46831" lon="4.70661">
        <ele>507.1</ele>
        <time>2019-10-19T07:02:43Z</time>
      </trkpt>
      <trkpt lat="45.46835" lon="4.70653">
        <ele>508</ele>
        <time>2019-10-19T07:02:47Z</time>
      </trkpt>
      <trkpt lat="45.46844" lon="4.70631">
        <ele>510.5</ele>
        <time>2019-10-19T07:02:59Z</time>
      </trkpt>
      <trkpt lat="45.46852" lon="4.70614">
        <ele>512.6</ele>
        <time>2019-10-19T07:03:10Z</time>
      </trkpt>
      <trkpt lat="45.46855" lon="4.70587">
        <ele>515</ele>
        <time>2019-10-19T07:03:24Z</time>
      </trkpt>
      <trkpt lat="45.4686" lon="4.70564">
        <ele>516.6</ele>
        <time>2019-10-19T07:03:35Z</time>
      </trkpt>
      <trkpt lat="45.46859" lon="4.70562">
        <ele>516.7</ele>
        <time>2019-10-19T07:03:36Z</time>
      </trkpt>
      <trkpt lat="45.46866" lon="4.70538">
        <ele>517.8</ele>
        <time>2019-10-19T07:03:46Z</time>
      </trkpt>
      <trkpt lat="45.46866" lon="4.7053">
        <ele>518.2</ele>
        <time>2019-10-19T07:03:49Z</time>
      </trkpt>
      <trkpt lat="45.4687" lon="4.70517">
        <ele>518.8</ele>
        <time>2019-10-19T07:03:54Z</time>
      </trkpt>
      <trkpt lat="45.46876" lon="4.70498">
        <ele>519.9</ele>
        <time>2019-10-19T07:04:02Z</time>
      </trkpt>
      <trkpt lat="45.46878" lon="4.70488">
        <ele>520.3</ele>
        <time>2019-10-19T07:04:07Z</time>
      </trkpt>
      <trkpt lat="45.46875" lon="4.70463">
        <ele>521.5</ele>
        <time>2019-10-19T07:04:17Z</time>
      </trkpt>
      <trkpt lat="45.46874" lon="4.70457">
        <ele>521.9</ele>
        <time>2019-10-19T07:04:20Z</time>
      </trkpt>
      <trkpt lat="45.46873" lon="4.70433">
        <ele>523.9</ele>
        <time>2019-10-19T07:04:30Z</time>
      </trkpt>
      <trkpt lat="45.46873" lon="4.70418">
        <ele>524.9</ele>
        <time>2019-10-19T07:04:36Z</time>
      </trkpt>
      <trkpt lat="45.46876" lon="4.7041">
        <ele>525.4</ele>
        <time>2019-10-19T07:04:41Z</time>
      </trkpt>
      <trkpt lat="45.46886" lon="4.70396">
        <ele>525.8</ele>
        <time>2019-10-19T07:04:51Z</time>
      </trkpt>
      <trkpt lat="45.46899" lon="4.70387">
        <ele>525.7</ele>
        <time>2019-10-19T07:04:59Z</time>
      </trkpt>
      <trkpt lat="45.46912" lon="4.70398">
        <ele>525.5</ele>
        <time>2019-10-19T07:05:09Z</time>
      </trkpt>
      <trkpt lat="45.46927" lon="4.70408">
        <ele>525.5</ele>
        <time>2019-10-19T07:05:16Z</time>
      </trkpt>
      <trkpt lat="45.46934" lon="4.70403">
        <ele>526.1</ele>
        <time>2019-10-19T07:05:22Z</time>
      </trkpt>
      <trkpt lat="45.46936" lon="4.70398">
        <ele>526.7</ele>
        <time>2019-10-19T07:05:25Z</time>
      </trkpt>
      <trkpt lat="45.46951" lon="4.70393">
        <ele>529.7</ele>
        <time>2019-10-19T07:05:39Z</time>
      </trkpt>
      <trkpt lat="45.4697" lon="4.70385">
        <ele>532.6</ele>
        <time>2019-10-19T07:05:56Z</time>
      </trkpt>
      <trkpt lat="45.46976" lon="4.70383">
        <ele>533.5</ele>
        <time>2019-10-19T07:06:00Z</time>
      </trkpt>
      <trkpt lat="45.46987" lon="4.70377">
        <ele>535.7</ele>
        <time>2019-10-19T07:06:10Z</time>
      </trkpt>
      <trkpt lat="45.46994" lon="4.70372">
        <ele>536.8</ele>
        <time>2019-10-19T07:06:16Z</time>
      </trkpt>
      <trkpt lat="45.47012" lon="4.70361">
        <ele>540</ele>
        <time>2019-10-19T07:06:33Z</time>
      </trkpt>
      <trkpt lat="45.47019" lon="4.70357">
        <ele>540.9</ele>
        <time>2019-10-19T07:06:40Z</time>
      </trkpt>
      <trkpt lat="45.47036" lon="4.70353">
        <ele>540.9</ele>
        <time>2019-10-19T07:07:10Z</time>
      </trkpt>
      <trkpt lat="45.47048" lon="4.70357">
        <ele>540.9</ele>
        <time>2019-10-19T07:07:18Z</time>
      </trkpt>
      <trkpt lat="45.47067" lon="4.70365">
        <ele>540.9</ele>
        <time>2019-10-19T07:07:30Z</time>
      </trkpt>
      <trkpt lat="45.47085" lon="4.70371">
        <ele>540.9</ele>
        <time>2019-10-19T07:07:40Z</time>
      </trkpt>
      <trkpt lat="45.471" lon="4.7038">
        <ele>541.1</ele>
        <time>2019-10-19T07:07:50Z</time>
      </trkpt>
      <trkpt lat="45.47116" lon="4.70395">
        <ele>541.8</ele>
        <time>2019-10-19T07:08:02Z</time>
      </trkpt>
      <trkpt lat="45.47121" lon="4.70405">
        <ele>542.5</ele>
        <time>2019-10-19T07:08:09Z</time>
      </trkpt>
      <trkpt lat="45.47131" lon="4.70427">
        <ele>544.5</ele>
        <time>2019-10-19T07:08:23Z</time>
      </trkpt>
      <trkpt lat="45.4714" lon="4.70451">
        <ele>547.2</ele>
        <time>2019-10-19T07:08:39Z</time>
      </trkpt>
      <trkpt lat="45.47153" lon="4.70464">
        <ele>549.3</ele>
        <time>2019-10-19T07:08:51Z</time>
      </trkpt>
      <trkpt lat="45.47161" lon="4.70474">
        <ele>550.6</ele>
        <time>2019-10-19T07:08:58Z</time>
      </trkpt>
      <trkpt lat="45.47175" lon="4.70492">
        <ele>552.7</ele>
        <time>2019-10-19T07:09:10Z</time>
      </trkpt>
      <trkpt lat="45.47178" lon="4.70498">
        <ele>553.3</ele>
        <time>2019-10-19T07:09:14Z</time>
      </trkpt>
      <trkpt lat="45.47183" lon="4.70506">
        <ele>554.1</ele>
        <time>2019-10-19T07:09:19Z</time>
      </trkpt>
      <trkpt lat="45.47189" lon="4.70511">
        <ele>555</ele>
        <time>2019-10-19T07:09:24Z</time>
      </trkpt>
      <trkpt lat="45.47189" lon="4.70512">
        <ele>555.1</ele>
        <time>2019-10-19T07:09:25Z</time>
      </trkpt>
      <trkpt lat="45.4719" lon="4.70514">
        <ele>555.4</ele>
        <time>2019-10-19T07:09:27Z</time>
      </trkpt>
      <trkpt lat="45.47204" lon="4.70518">
        <ele>557.5</ele>
        <time>2019-10-19T07:09:39Z</time>
      </trkpt>
      <trkpt lat="45.47213" lon="4.7052">
        <ele>558.8</ele>
        <time>2019-10-19T07:09:45Z</time>
      </trkpt>
      <trkpt lat="45.4722" lon="4.7052">
        <ele>559.9</ele>
        <time>2019-10-19T07:09:51Z</time>
      </trkpt>
      <trkpt lat="45.47221" lon="4.70521">
        <ele>560</ele>
        <time>2019-10-19T07:09:52Z</time>
      </trkpt>
      <trkpt lat="45.47229" lon="4.70523">
        <ele>561.3</ele>
        <time>2019-10-19T07:09:59Z</time>
      </trkpt>
      <trkpt lat="45.47246" lon="4.70515">
        <ele>564.1</ele>
        <time>2019-10-19T07:10:15Z</time>
      </trkpt>
      <trkpt lat="45.47262" lon="4.70504">
        <ele>567.1</ele>
        <time>2019-10-19T07:10:26Z</time>
      </trkpt>
      <trkpt lat="45.47277" lon="4.70501">
        <ele>569.6</ele>
        <time>2019-10-19T07:10:35Z</time>
      </trkpt>
      <trkpt lat="45.47288" lon="4.70499">
        <ele>571.4</ele>
        <time>2019-10-19T07:10:42Z</time>
      </trkpt>
      <trkpt lat="45.47303" lon="4.70488">
        <ele>574</ele>
        <time>2019-10-19T07:10:54Z</time>
      </trkpt>
      <trkpt lat="45.47316" lon="4.70471">
        <ele>576.2</ele>
        <time>2019-10-19T07:11:06Z</time>
      </trkpt>
      <trkpt lat="45.4732" lon="4.70464">
        <ele>577</ele>
        <time>2019-10-19T07:11:12Z</time>
      </trkpt>
      <trkpt lat="45.47332" lon="4.70444">
        <ele>579.2</ele>
        <time>2019-10-19T07:11:24Z</time>
      </trkpt>
      <trkpt lat="45.47345" lon="4.70422">
        <ele>581.6</ele>
        <time>2019-10-19T07:11:34Z</time>
      </trkpt>
      <trkpt lat="45.47356" lon="4.704">
        <ele>583.4</ele>
        <time>2019-10-19T07:11:43Z</time>
      </trkpt>
      <trkpt lat="45.47361" lon="4.70385">
        <ele>584.4</ele>
        <time>2019-10-19T07:11:50Z</time>
      </trkpt>
      <trkpt lat="45.47364" lon="4.70375">
        <ele>584.9</ele>
        <time>2019-10-19T07:11:54Z</time>
      </trkpt>
      <trkpt lat="45.47371" lon="4.70351">
        <ele>586.2</ele>
        <time>2019-10-19T07:12:04Z</time>
      </trkpt>
      <trkpt lat="45.47379" lon="4.70335">
        <ele>587.1</ele>
        <time>2019-10-19T07:12:11Z</time>
      </trkpt>
      <trkpt lat="45.47387" lon="4.70325">
        <ele>587.9</ele>
        <time>2019-10-19T07:12:16Z</time>
      </trkpt>
      <trkpt lat="45.47398" lon="4.70303">
        <ele>589.2</ele>
        <time>2019-10-19T07:12:27Z</time>
      </trkpt>
      <trkpt lat="45.47401" lon="4.70296">
        <ele>589.6</ele>
        <time>2019-10-19T07:12:30Z</time>
      </trkpt>
      <trkpt lat="45.47412" lon="4.70274">
        <ele>590.7</ele>
        <time>2019-10-19T07:12:38Z</time>
      </trkpt>
      <trkpt lat="45.47426" lon="4.70257">
        <ele>591.4</ele>
        <time>2019-10-19T07:12:46Z</time>
      </trkpt>
      <trkpt lat="45.47437" lon="4.70234">
        <ele>592</ele>
        <time>2019-10-19T07:12:56Z</time>
      </trkpt>
      <trkpt lat="45.47447" lon="4.7021">
        <ele>592.4</ele>
        <time>2019-10-19T07:13:05Z</time>
      </trkpt>
      <trkpt lat="45.47454" lon="4.70185">
        <ele>593.3</ele>
        <time>2019-10-19T07:13:15Z</time>
      </trkpt>
      <trkpt lat="45.47458" lon="4.70178">
        <ele>593.6</ele>
        <time>2019-10-19T07:13:18Z</time>
      </trkpt>
      <trkpt lat="45.47469" lon="4.70155">
        <ele>594.5</ele>
        <time>2019-10-19T07:13:27Z</time>
      </trkpt>
      <trkpt lat="45.47479" lon="4.70133">
        <ele>595.1</ele>
        <time>2019-10-19T07:13:37Z</time>
      </trkpt>
      <trkpt lat="45.4749" lon="4.70111">
        <ele>595.7</ele>
        <time>2019-10-19T07:13:46Z</time>
      </trkpt>
      <trkpt lat="45.475" lon="4.70089">
        <ele>596</ele>
        <time>2019-10-19T07:13:55Z</time>
      </trkpt>
      <trkpt lat="45.47508" lon="4.70066">
        <ele>596.4</ele>
        <time>2019-10-19T07:14:03Z</time>
      </trkpt>
      <trkpt lat="45.47515" lon="4.70049">
        <ele>597.3</ele>
        <time>2019-10-19T07:14:10Z</time>
      </trkpt>
      <trkpt lat="45.4752" lon="4.70033">
        <ele>598.6</ele>
        <time>2019-10-19T07:14:18Z</time>
      </trkpt>
      <trkpt lat="45.47525" lon="4.70014">
        <ele>600.2</ele>
        <time>2019-10-19T07:14:26Z</time>
      </trkpt>
      <trkpt lat="45.47528" lon="4.70007">
        <ele>600.8</ele>
        <time>2019-10-19T07:14:30Z</time>
      </trkpt>
      <trkpt lat="45.47532" lon="4.69999">
        <ele>601.5</ele>
        <time>2019-10-19T07:14:34Z</time>
      </trkpt>
      <trkpt lat="45.47539" lon="4.69972">
        <ele>603.6</ele>
        <time>2019-10-19T07:14:46Z</time>
      </trkpt>
      <trkpt lat="45.47538" lon="4.69955">
        <ele>605.2</ele>
        <time>2019-10-19T07:14:55Z</time>
      </trkpt>
      <trkpt lat="45.4754" lon="4.69936">
        <ele>606.8</ele>
        <time>2019-10-19T07:15:06Z</time>
      </trkpt>
      <trkpt lat="45.47541" lon="4.69927">
        <ele>607.5</ele>
        <time>2019-10-19T07:15:11Z</time>
      </trkpt>
      <trkpt lat="45.47546" lon="4.69917">
        <ele>608.5</ele>
        <time>2019-10-19T07:15:18Z</time>
      </trkpt>
      <trkpt lat="45.47546" lon="4.69915">
        <ele>608.6</ele>
        <time>2019-10-19T07:15:19Z</time>
      </trkpt>
      <trkpt lat="45.4755" lon="4.69898">
        <ele>609.9</ele>
        <time>2019-10-19T07:15:31Z</time>
      </trkpt>
      <trkpt lat="45.47558" lon="4.69874">
        <ele>612.1</ele>
        <time>2019-10-19T07:15:48Z</time>
      </trkpt>
      <trkpt lat="45.47559" lon="4.6987">
        <ele>612.6</ele>
        <time>2019-10-19T07:15:51Z</time>
      </trkpt>
      <trkpt lat="45.47565" lon="4.69847">
        <ele>614.7</ele>
        <time>2019-10-19T07:16:04Z</time>
      </trkpt>
      <trkpt lat="45.47573" lon="4.69823">
        <ele>616.6</ele>
        <time>2019-10-19T07:16:14Z</time>
      </trkpt>
      <trkpt lat="45.47576" lon="4.69797">
        <ele>618.4</ele>
        <time>2019-10-19T07:16:25Z</time>
      </trkpt>
      <trkpt lat="45.47576" lon="4.69794">
        <ele>618.6</ele>
        <time>2019-10-19T07:16:27Z</time>
      </trkpt>
      <trkpt lat="45.4758" lon="4.69782">
        <ele>619.7</ele>
        <time>2019-10-19T07:16:35Z</time>
      </trkpt>
      <trkpt lat="45.47583" lon="4.69776">
        <ele>620.3</ele>
        <time>2019-10-19T07:16:40Z</time>
      </trkpt>
      <trkpt lat="45.47598" lon="4.69759">
        <ele>622.3</ele>
        <time>2019-10-19T07:16:54Z</time>
      </trkpt>
      <trkpt lat="45.476" lon="4.69756">
        <ele>622.6</ele>
        <time>2019-10-19T07:16:57Z</time>
      </trkpt>
      <trkpt lat="45.47605" lon="4.6975">
        <ele>623.3</ele>
        <time>2019-10-19T07:17:02Z</time>
      </trkpt>
      <trkpt lat="45.4761" lon="4.69736">
        <ele>624.6</ele>
        <time>2019-10-19T07:17:11Z</time>
      </trkpt>
      <trkpt lat="45.47613" lon="4.69732">
        <ele>624.5</ele>
        <time>2019-10-19T07:17:15Z</time>
      </trkpt>
      <trkpt lat="45.47617" lon="4.69727">
        <ele>624.5</ele>
        <time>2019-10-19T07:17:19Z</time>
      </trkpt>
      <trkpt lat="45.47631" lon="4.69714">
        <ele>624.5</ele>
        <time>2019-10-19T07:17:33Z</time>
      </trkpt>
      <trkpt lat="45.47636" lon="4.69713">
        <ele>624.5</ele>
        <time>2019-10-19T07:17:37Z</time>
      </trkpt>
      <trkpt lat="45.4764" lon="4.6971">
        <ele>624.5</ele>
        <time>2019-10-19T07:17:41Z</time>
      </trkpt>
      <trkpt lat="45.47652" lon="4.69693">
        <ele>624.3</ele>
        <time>2019-10-19T07:18:01Z</time>
      </trkpt>
      <trkpt lat="45.47656" lon="4.69667">
        <ele>624.3</ele>
        <time>2019-10-19T07:18:21Z</time>
      </trkpt>
      <trkpt lat="45.47654" lon="4.69675">
        <ele>624.3</ele>
        <time>2019-10-19T07:20:41Z</time>
      </trkpt>
      <trkpt lat="45.47648" lon="4.69704">
        <ele>624.4</ele>
        <time>2019-10-19T07:21:04Z</time>
      </trkpt>
      <trkpt lat="45.47638" lon="4.69716">
        <ele>624.5</ele>
        <time>2019-10-19T07:21:16Z</time>
      </trkpt>
      <trkpt lat="45.47633" lon="4.69719">
        <ele>624.5</ele>
        <time>2019-10-19T07:21:20Z</time>
      </trkpt>
      <trkpt lat="45.47617" lon="4.69729">
        <ele>624.5</ele>
        <time>2019-10-19T07:21:35Z</time>
      </trkpt>
      <trkpt lat="45.47604" lon="4.69747">
        <ele>623.6</ele>
        <time>2019-10-19T07:21:48Z</time>
      </trkpt>
      <trkpt lat="45.47601" lon="4.69754">
        <ele>622.9</ele>
        <time>2019-10-19T07:21:52Z</time>
      </trkpt>
      <trkpt lat="45.47593" lon="4.69768">
        <ele>621.4</ele>
        <time>2019-10-19T07:22:00Z</time>
      </trkpt>
      <trkpt lat="45.47583" lon="4.69791">
        <ele>619.4</ele>
        <time>2019-10-19T07:22:11Z</time>
      </trkpt>
      <trkpt lat="45.47576" lon="4.69817">
        <ele>617.2</ele>
        <time>2019-10-19T07:22:21Z</time>
      </trkpt>
      <trkpt lat="45.47571" lon="4.69844">
        <ele>615.3</ele>
        <time>2019-10-19T07:22:31Z</time>
      </trkpt>
      <trkpt lat="45.47563" lon="4.69868">
        <ele>613.1</ele>
        <time>2019-10-19T07:22:40Z</time>
      </trkpt>
      <trkpt lat="45.47558" lon="4.6988">
        <ele>611.8</ele>
        <time>2019-10-19T07:22:45Z</time>
      </trkpt>
      <trkpt lat="45.47549" lon="4.69903">
        <ele>609.6</ele>
        <time>2019-10-19T07:22:55Z</time>
      </trkpt>
      <trkpt lat="45.47548" lon="4.69905">
        <ele>609.4</ele>
        <time>2019-10-19T07:22:56Z</time>
      </trkpt>
      <trkpt lat="45.4754" lon="4.69928">
        <ele>607.5</ele>
        <time>2019-10-19T07:23:05Z</time>
      </trkpt>
      <trkpt lat="45.47533" lon="4.69951">
        <ele>605.3</ele>
        <time>2019-10-19T07:23:14Z</time>
      </trkpt>
      <trkpt lat="45.47527" lon="4.69976">
        <ele>602.9</ele>
        <time>2019-10-19T07:23:23Z</time>
      </trkpt>
      <trkpt lat="45.47521" lon="4.7">
        <ele>601.2</ele>
        <time>2019-10-19T07:23:32Z</time>
      </trkpt>
      <trkpt lat="45.47515" lon="4.70026">
        <ele>599</ele>
        <time>2019-10-19T07:23:41Z</time>
      </trkpt>
      <trkpt lat="45.4751" lon="4.70052">
        <ele>597</ele>
        <time>2019-10-19T07:23:50Z</time>
      </trkpt>
      <trkpt lat="45.47506" lon="4.70078">
        <ele>596</ele>
        <time>2019-10-19T07:23:59Z</time>
      </trkpt>
      <trkpt lat="45.47497" lon="4.70104">
        <ele>595.9</ele>
        <time>2019-10-19T07:24:09Z</time>
      </trkpt>
      <trkpt lat="45.47488" lon="4.70127">
        <ele>595.4</ele>
        <time>2019-10-19T07:24:17Z</time>
      </trkpt>
      <trkpt lat="45.47477" lon="4.7015">
        <ele>594.8</ele>
        <time>2019-10-19T07:24:25Z</time>
      </trkpt>
      <trkpt lat="45.47468" lon="4.70172">
        <ele>594</ele>
        <time>2019-10-19T07:24:32Z</time>
      </trkpt>
      <trkpt lat="45.47459" lon="4.70194">
        <ele>593.1</ele>
        <time>2019-10-19T07:24:39Z</time>
      </trkpt>
      <trkpt lat="45.47449" lon="4.70222">
        <ele>592.3</ele>
        <time>2019-10-19T07:24:47Z</time>
      </trkpt>
      <trkpt lat="45.47435" lon="4.70242">
        <ele>591.8</ele>
        <time>2019-10-19T07:24:56Z</time>
      </trkpt>
      <trkpt lat="45.47421" lon="4.70259">
        <ele>591.3</ele>
        <time>2019-10-19T07:25:04Z</time>
      </trkpt>
      <trkpt lat="45.47408" lon="4.70278">
        <ele>590.4</ele>
        <time>2019-10-19T07:25:13Z</time>
      </trkpt>
      <trkpt lat="45.47404" lon="4.70286">
        <ele>590</ele>
        <time>2019-10-19T07:25:16Z</time>
      </trkpt>
      <trkpt lat="45.47394" lon="4.70303">
        <ele>589</ele>
        <time>2019-10-19T07:25:22Z</time>
      </trkpt>
      <trkpt lat="45.47384" lon="4.70326">
        <ele>587.6</ele>
        <time>2019-10-19T07:25:29Z</time>
      </trkpt>
      <trkpt lat="45.47373" lon="4.70347">
        <ele>586.3</ele>
        <time>2019-10-19T07:25:36Z</time>
      </trkpt>
      <trkpt lat="45.47364" lon="4.70372">
        <ele>585</ele>
        <time>2019-10-19T07:25:43Z</time>
      </trkpt>
      <trkpt lat="45.47363" lon="4.70375">
        <ele>584.8</ele>
        <time>2019-10-19T07:25:44Z</time>
      </trkpt>
      <trkpt lat="45.47356" lon="4.70388">
        <ele>584</ele>
        <time>2019-10-19T07:25:49Z</time>
      </trkpt>
      <trkpt lat="45.47346" lon="4.70412">
        <ele>582.1</ele>
        <time>2019-10-19T07:25:57Z</time>
      </trkpt>
      <trkpt lat="45.47335" lon="4.70436">
        <ele>579.8</ele>
        <time>2019-10-19T07:26:05Z</time>
      </trkpt>
      <trkpt lat="45.47322" lon="4.70458">
        <ele>577.5</ele>
        <time>2019-10-19T07:26:13Z</time>
      </trkpt>
      <trkpt lat="45.47309" lon="4.70477">
        <ele>575.2</ele>
        <time>2019-10-19T07:26:20Z</time>
      </trkpt>
      <trkpt lat="45.47292" lon="4.70491">
        <ele>572.5</ele>
        <time>2019-10-19T07:26:29Z</time>
      </trkpt>
      <trkpt lat="45.47273" lon="4.70498">
        <ele>569.2</ele>
        <time>2019-10-19T07:26:37Z</time>
      </trkpt>
      <trkpt lat="45.47255" lon="4.70511">
        <ele>565.9</ele>
        <time>2019-10-19T07:26:45Z</time>
      </trkpt>
      <trkpt lat="45.47239" lon="4.70523">
        <ele>562.8</ele>
        <time>2019-10-19T07:26:53Z</time>
      </trkpt>
      <trkpt lat="45.4722" lon="4.70522">
        <ele>559.8</ele>
        <time>2019-10-19T07:27:01Z</time>
      </trkpt>
      <trkpt lat="45.47201" lon="4.7052">
        <ele>557</ele>
        <time>2019-10-19T07:27:09Z</time>
      </trkpt>
      <trkpt lat="45.47182" lon="4.70509">
        <ele>554.1</ele>
        <time>2019-10-19T07:27:18Z</time>
      </trkpt>
      <trkpt lat="45.47167" lon="4.70489">
        <ele>551.8</ele>
        <time>2019-10-19T07:27:26Z</time>
      </trkpt>
      <trkpt lat="45.4716" lon="4.7048">
        <ele>550.7</ele>
        <time>2019-10-19T07:27:30Z</time>
      </trkpt>
      <trkpt lat="45.47144" lon="4.70463">
        <ele>548.2</ele>
        <time>2019-10-19T07:27:38Z</time>
      </trkpt>
      <trkpt lat="45.47132" lon="4.70442">
        <ele>545.5</ele>
        <time>2019-10-19T07:27:47Z</time>
      </trkpt>
      <trkpt lat="45.47123" lon="4.70419">
        <ele>543.2</ele>
        <time>2019-10-19T07:27:55Z</time>
      </trkpt>
      <trkpt lat="45.47112" lon="4.70399">
        <ele>541.7</ele>
        <time>2019-10-19T07:28:03Z</time>
      </trkpt>
      <trkpt lat="45.47097" lon="4.70385">
        <ele>541.1</ele>
        <time>2019-10-19T07:28:11Z</time>
      </trkpt>
      <trkpt lat="45.47079" lon="4.70374">
        <ele>540.9</ele>
        <time>2019-10-19T07:28:19Z</time>
      </trkpt>
      <trkpt lat="45.47061" lon="4.70361">
        <ele>540.9</ele>
        <time>2019-10-19T07:28:27Z</time>
      </trkpt>
      <trkpt lat="45.47042" lon="4.70356">
        <ele>540.9</ele>
        <time>2019-10-19T07:28:35Z</time>
      </trkpt>
      <trkpt lat="45.47022" lon="4.70361">
        <ele>540.9</ele>
        <time>2019-10-19T07:28:43Z</time>
      </trkpt>
      <trkpt lat="45.47003" lon="4.70371">
        <ele>539.3</ele>
        <time>2019-10-19T07:28:51Z</time>
      </trkpt>
      <trkpt lat="45.46985" lon="4.7038">
        <ele>535.6</ele>
        <time>2019-10-19T07:28:59Z</time>
      </trkpt>
      <trkpt lat="45.46967" lon="4.70388">
        <ele>532.1</ele>
        <time>2019-10-19T07:29:07Z</time>
      </trkpt>
      <trkpt lat="45.46948" lon="4.70394">
        <ele>528.8</ele>
        <time>2019-10-19T07:29:16Z</time>
      </trkpt>
      <trkpt lat="45.46931" lon="4.70405">
        <ele>525.5</ele>
        <time>2019-10-19T07:29:25Z</time>
      </trkpt>
      <trkpt lat="45.4692" lon="4.70397">
        <ele>525.5</ele>
        <time>2019-10-19T07:29:30Z</time>
      </trkpt>
      <trkpt lat="45.46905" lon="4.7038">
        <ele>525.7</ele>
        <time>2019-10-19T07:29:38Z</time>
      </trkpt>
      <trkpt lat="45.46887" lon="4.70375">
        <ele>525.8</ele>
        <time>2019-10-19T07:29:46Z</time>
      </trkpt>
      <trkpt lat="45.4687" lon="4.70388">
        <ele>525.2</ele>
        <time>2019-10-19T07:29:56Z</time>
      </trkpt>
      <trkpt lat="45.4687" lon="4.70414">
        <ele>523.4</ele>
        <time>2019-10-19T07:30:05Z</time>
      </trkpt>
      <trkpt lat="45.46872" lon="4.70442">
        <ele>521.4</ele>
        <time>2019-10-19T07:30:13Z</time>
      </trkpt>
      <trkpt lat="45.46874" lon="4.70468">
        <ele>520.3</ele>
        <time>2019-10-19T07:30:20Z</time>
      </trkpt>
      <trkpt lat="45.46873" lon="4.70495">
        <ele>519</ele>
        <time>2019-10-19T07:30:28Z</time>
      </trkpt>
      <trkpt lat="45.46873" lon="4.70523">
        <ele>517.7</ele>
        <time>2019-10-19T07:30:36Z</time>
      </trkpt>
      <trkpt lat="45.46873" lon="4.70533">
        <ele>517.3</ele>
        <time>2019-10-19T07:30:39Z</time>
      </trkpt>
      <trkpt lat="45.46872" lon="4.70551">
        <ele>516.5</ele>
        <time>2019-10-19T07:30:44Z</time>
      </trkpt>
      <trkpt lat="45.46871" lon="4.70562">
        <ele>516</ele>
        <time>2019-10-19T07:30:47Z</time>
      </trkpt>
      <trkpt lat="45.46866" lon="4.7059">
        <ele>513.7</ele>
        <time>2019-10-19T07:30:54Z</time>
      </trkpt>
      <trkpt lat="45.46859" lon="4.70603">
        <ele>512.3</ele>
        <time>2019-10-19T07:30:58Z</time>
      </trkpt>
      <trkpt lat="45.46848" lon="4.70616">
        <ele>510.3</ele>
        <time>2019-10-19T07:31:03Z</time>
      </trkpt>
      <trkpt lat="45.46838" lon="4.70639">
        <ele>507.7</ele>
        <time>2019-10-19T07:31:11Z</time>
      </trkpt>
      <trkpt lat="45.46832" lon="4.70649">
        <ele>506.6</ele>
        <time>2019-10-19T07:31:15Z</time>
      </trkpt>
      <trkpt lat="45.4682" lon="4.70669">
        <ele>504.8</ele>
        <time>2019-10-19T07:31:23Z</time>
      </trkpt>
      <trkpt lat="45.46814" lon="4.70682">
        <ele>504</ele>
        <time>2019-10-19T07:31:28Z</time>
      </trkpt>
      <trkpt lat="45.46807" lon="4.70698">
        <ele>503.1</ele>
        <time>2019-10-19T07:31:33Z</time>
      </trkpt>
      <trkpt lat="45.46807" lon="4.70701">
        <ele>502.9</ele>
        <time>2019-10-19T07:31:34Z</time>
      </trkpt>
      <trkpt lat="45.4681" lon="4.70729">
        <ele>501.1</ele>
        <time>2019-10-19T07:31:42Z</time>
      </trkpt>
      <trkpt lat="45.46813" lon="4.70747">
        <ele>499.7</ele>
        <time>2019-10-19T07:31:47Z</time>
      </trkpt>
      <trkpt lat="45.46812" lon="4.70775">
        <ele>497.8</ele>
        <time>2019-10-19T07:31:55Z</time>
      </trkpt>
      <trkpt lat="45.46818" lon="4.70794">
        <ele>496.2</ele>
        <time>2019-10-19T07:32:00Z</time>
      </trkpt>
      <trkpt lat="45.46826" lon="4.70818">
        <ele>494</ele>
        <time>2019-10-19T07:32:07Z</time>
      </trkpt>
      <trkpt lat="45.4683" lon="4.70837">
        <ele>492.4</ele>
        <time>2019-10-19T07:32:13Z</time>
      </trkpt>
      <trkpt lat="45.46834" lon="4.70863">
        <ele>490.5</ele>
        <time>2019-10-19T07:32:21Z</time>
      </trkpt>
      <trkpt lat="45.46832" lon="4.70889">
        <ele>488.3</ele>
        <time>2019-10-19T07:32:28Z</time>
      </trkpt>
      <trkpt lat="45.46835" lon="4.70912">
        <ele>486.4</ele>
        <time>2019-10-19T07:32:35Z</time>
      </trkpt>
      <trkpt lat="45.46836" lon="4.70942">
        <ele>483.2</ele>
        <time>2019-10-19T07:32:42Z</time>
      </trkpt>
      <trkpt lat="45.4683" lon="4.7097">
        <ele>481.1</ele>
        <time>2019-10-19T07:32:48Z</time>
      </trkpt>
      <trkpt lat="45.46815" lon="4.70993">
        <ele>479.5</ele>
        <time>2019-10-19T07:32:55Z</time>
      </trkpt>
      <trkpt lat="45.46799" lon="4.7101">
        <ele>477.8</ele>
        <time>2019-10-19T07:33:02Z</time>
      </trkpt>
      <trkpt lat="45.46781" lon="4.71014">
        <ele>476.7</ele>
        <time>2019-10-19T07:33:08Z</time>
      </trkpt>
      <trkpt lat="45.46763" lon="4.71012">
        <ele>476.2</ele>
        <time>2019-10-19T07:33:15Z</time>
      </trkpt>
      <trkpt lat="45.46744" lon="4.71004">
        <ele>476</ele>
        <time>2019-10-19T07:33:23Z</time>
      </trkpt>
      <trkpt lat="45.46725" lon="4.70998">
        <ele>475.8</ele>
        <time>2019-10-19T07:33:32Z</time>
      </trkpt>
      <trkpt lat="45.4672" lon="4.70998">
        <ele>475.8</ele>
        <time>2019-10-19T07:33:34Z</time>
      </trkpt>
      <trkpt lat="45.467" lon="4.70997">
        <ele>475.7</ele>
        <time>2019-10-19T07:33:42Z</time>
      </trkpt>
      <trkpt lat="45.46681" lon="4.7099">
        <ele>476.5</ele>
        <time>2019-10-19T07:33:49Z</time>
      </trkpt>
      <trkpt lat="45.46665" lon="4.70978">
        <ele>478.2</ele>
        <time>2019-10-19T07:33:56Z</time>
      </trkpt>
      <trkpt lat="45.46654" lon="4.70973">
        <ele>478.5</ele>
        <time>2019-10-19T07:34:01Z</time>
      </trkpt>
      <trkpt lat="45.4665" lon="4.70987">
        <ele>477.5</ele>
        <time>2019-10-19T07:34:05Z</time>
      </trkpt>
      <trkpt lat="45.46651" lon="4.71013">
        <ele>476.1</ele>
        <time>2019-10-19T07:34:12Z</time>
      </trkpt>
      <trkpt lat="45.46653" lon="4.71041">
        <ele>475.3</ele>
        <time>2019-10-19T07:34:20Z</time>
      </trkpt>
      <trkpt lat="45.46652" lon="4.71066">
        <ele>474.6</ele>
        <time>2019-10-19T07:34:27Z</time>
      </trkpt>
      <trkpt lat="45.46648" lon="4.71092">
        <ele>473.8</ele>
        <time>2019-10-19T07:34:34Z</time>
      </trkpt>
      <trkpt lat="45.46642" lon="4.71119">
        <ele>472.9</ele>
        <time>2019-10-19T07:34:42Z</time>
      </trkpt>
      <trkpt lat="45.46638" lon="4.71147">
        <ele>471.9</ele>
        <time>2019-10-19T07:34:50Z</time>
      </trkpt>
      <trkpt lat="45.46634" lon="4.71175">
        <ele>470.6</ele>
        <time>2019-10-19T07:34:58Z</time>
      </trkpt>
      <trkpt lat="45.46631" lon="4.71201">
        <ele>469</ele>
        <time>2019-10-19T07:35:06Z</time>
      </trkpt>
      <trkpt lat="45.4663" lon="4.71229">
        <ele>466.9</ele>
        <time>2019-10-19T07:35:15Z</time>
      </trkpt>
      <trkpt lat="45.46633" lon="4.71256">
        <ele>464.9</ele>
        <time>2019-10-19T07:35:23Z</time>
      </trkpt>
      <trkpt lat="45.46638" lon="4.71281">
        <ele>463.3</ele>
        <time>2019-10-19T07:35:30Z</time>
      </trkpt>
      <trkpt lat="45.46635" lon="4.71308">
        <ele>461.7</ele>
        <time>2019-10-19T07:35:37Z</time>
      </trkpt>
      <trkpt lat="45.46624" lon="4.71331">
        <ele>460</ele>
        <time>2019-10-19T07:35:44Z</time>
      </trkpt>
      <trkpt lat="45.46612" lon="4.71353">
        <ele>458.2</ele>
        <time>2019-10-19T07:35:51Z</time>
      </trkpt>
      <trkpt lat="45.46597" lon="4.71369">
        <ele>456.9</ele>
        <time>2019-10-19T07:35:58Z</time>
      </trkpt>
      <trkpt lat="45.46581" lon="4.71383">
        <ele>456.1</ele>
        <time>2019-10-19T07:36:06Z</time>
      </trkpt>
      <trkpt lat="45.46569" lon="4.71407">
        <ele>454.9</ele>
        <time>2019-10-19T07:36:14Z</time>
      </trkpt>
      <trkpt lat="45.46554" lon="4.71426">
        <ele>452.7</ele>
        <time>2019-10-19T07:36:22Z</time>
      </trkpt>
      <trkpt lat="45.46543" lon="4.71447">
        <ele>450.8</ele>
        <time>2019-10-19T07:36:29Z</time>
      </trkpt>
      <trkpt lat="45.46531" lon="4.71458">
        <ele>449.7</ele>
        <time>2019-10-19T07:36:34Z</time>
      </trkpt>
      <trkpt lat="45.46513" lon="4.71466">
        <ele>447.4</ele>
        <time>2019-10-19T07:36:42Z</time>
      </trkpt>
      <trkpt lat="45.46499" lon="4.71484">
        <ele>445</ele>
        <time>2019-10-19T07:36:50Z</time>
      </trkpt>
      <trkpt lat="45.46497" lon="4.71487">
        <ele>444.6</ele>
        <time>2019-10-19T07:36:51Z</time>
      </trkpt>
      <trkpt lat="45.46478" lon="4.71487">
        <ele>441.6</ele>
        <time>2019-10-19T07:37:00Z</time>
      </trkpt>
      <trkpt lat="45.4647" lon="4.71497">
        <ele>440.2</ele>
        <time>2019-10-19T07:37:04Z</time>
      </trkpt>
      <trkpt lat="45.46457" lon="4.71519">
        <ele>437.2</ele>
        <time>2019-10-19T07:37:12Z</time>
      </trkpt>
      <trkpt lat="45.46447" lon="4.7154">
        <ele>434.8</ele>
        <time>2019-10-19T07:37:19Z</time>
      </trkpt>
      <trkpt lat="45.46445" lon="4.71567">
        <ele>432.5</ele>
        <time>2019-10-19T07:37:28Z</time>
      </trkpt>
      <trkpt lat="45.46445" lon="4.71595">
        <ele>429.5</ele>
        <time>2019-10-19T07:37:36Z</time>
      </trkpt>
      <trkpt lat="45.46434" lon="4.71617">
        <ele>426.8</ele>
        <time>2019-10-19T07:37:45Z</time>
      </trkpt>
      <trkpt lat="45.46431" lon="4.71623">
        <ele>426.2</ele>
        <time>2019-10-19T07:37:47Z</time>
      </trkpt>
      <trkpt lat="45.46421" lon="4.71644">
        <ele>423.6</ele>
        <time>2019-10-19T07:37:54Z</time>
      </trkpt>
      <trkpt lat="45.46413" lon="4.71672">
        <ele>421.9</ele>
        <time>2019-10-19T07:38:01Z</time>
      </trkpt>
      <trkpt lat="45.46404" lon="4.71698">
        <ele>419.8</ele>
        <time>2019-10-19T07:38:07Z</time>
      </trkpt>
      <trkpt lat="45.46395" lon="4.71722">
        <ele>417.3</ele>
        <time>2019-10-19T07:38:13Z</time>
      </trkpt>
      <trkpt lat="45.46385" lon="4.71745">
        <ele>414.5</ele>
        <time>2019-10-19T07:38:19Z</time>
      </trkpt>
      <trkpt lat="45.46374" lon="4.7177">
        <ele>411.4</ele>
        <time>2019-10-19T07:38:26Z</time>
      </trkpt>
      <trkpt lat="45.46365" lon="4.71795">
        <ele>409.4</ele>
        <time>2019-10-19T07:38:33Z</time>
      </trkpt>
      <trkpt lat="45.46356" lon="4.71817">
        <ele>407.4</ele>
        <time>2019-10-19T07:38:40Z</time>
      </trkpt>
      <trkpt lat="45.46345" lon="4.71842">
        <ele>405.1</ele>
        <time>2019-10-19T07:38:48Z</time>
      </trkpt>
      <trkpt lat="45.46335" lon="4.71865">
        <ele>402.8</ele>
        <time>2019-10-19T07:38:56Z</time>
      </trkpt>
      <trkpt lat="45.46332" lon="4.71891">
        <ele>402.5</ele>
        <time>2019-10-19T07:39:04Z</time>
      </trkpt>
      <trkpt lat="45.46336" lon="4.71918">
        <ele>402.4</ele>
        <time>2019-10-19T07:39:11Z</time>
      </trkpt>
      <trkpt lat="45.46343" lon="4.71943">
        <ele>401.7</ele>
        <time>2019-10-19T07:39:18Z</time>
      </trkpt>
      <trkpt lat="45.46353" lon="4.71957">
        <ele>401</ele>
        <time>2019-10-19T07:39:24Z</time>
      </trkpt>
      <trkpt lat="45.46369" lon="4.71972">
        <ele>400.1</ele>
        <time>2019-10-19T07:39:32Z</time>
      </trkpt>
      <trkpt lat="45.46385" lon="4.71986">
        <ele>399.6</ele>
        <time>2019-10-19T07:39:40Z</time>
      </trkpt>
      <trkpt lat="45.46402" lon="4.72002">
        <ele>398.6</ele>
        <time>2019-10-19T07:39:48Z</time>
      </trkpt>
      <trkpt lat="45.46418" lon="4.72016">
        <ele>397.6</ele>
        <time>2019-10-19T07:39:55Z</time>
      </trkpt>
      <trkpt lat="45.46436" lon="4.72032">
        <ele>396.8</ele>
        <time>2019-10-19T07:40:03Z</time>
      </trkpt>
      <trkpt lat="45.46451" lon="4.72045">
        <ele>396.2</ele>
        <time>2019-10-19T07:40:10Z</time>
      </trkpt>
      <trkpt lat="45.46467" lon="4.7206">
        <ele>395.4</ele>
        <time>2019-10-19T07:40:18Z</time>
      </trkpt>
      <trkpt lat="45.46484" lon="4.72075">
        <ele>394.6</ele>
        <time>2019-10-19T07:40:25Z</time>
      </trkpt>
      <trkpt lat="45.46498" lon="4.72094">
        <ele>393.3</ele>
        <time>2019-10-19T07:40:32Z</time>
      </trkpt>
      <trkpt lat="45.46511" lon="4.72113">
        <ele>392.7</ele>
        <time>2019-10-19T07:40:39Z</time>
      </trkpt>
      <trkpt lat="45.46523" lon="4.72133">
        <ele>392.1</ele>
        <time>2019-10-19T07:40:46Z</time>
      </trkpt>
      <trkpt lat="45.46532" lon="4.72157">
        <ele>391.1</ele>
        <time>2019-10-19T07:40:53Z</time>
      </trkpt>
      <trkpt lat="45.46544" lon="4.72182">
        <ele>389.6</ele>
        <time>2019-10-19T07:41:01Z</time>
      </trkpt>
      <trkpt lat="45.46554" lon="4.72205">
        <ele>388.1</ele>
        <time>2019-10-19T07:41:08Z</time>
      </trkpt>
      <trkpt lat="45.46565" lon="4.72226">
        <ele>387.4</ele>
        <time>2019-10-19T07:41:15Z</time>
      </trkpt>
      <trkpt lat="45.46581" lon="4.72242">
        <ele>386.7</ele>
        <time>2019-10-19T07:41:23Z</time>
      </trkpt>
      <trkpt lat="45.46597" lon="4.72256">
        <ele>386.1</ele>
        <time>2019-10-19T07:41:31Z</time>
      </trkpt>
      <trkpt lat="45.46614" lon="4.72269">
        <ele>385.6</ele>
        <time>2019-10-19T07:41:38Z</time>
      </trkpt>
      <trkpt lat="45.46629" lon="4.72288">
        <ele>384.8</ele>
        <time>2019-10-19T07:41:46Z</time>
      </trkpt>
      <trkpt lat="45.46645" lon="4.72306">
        <ele>383.7</ele>
        <time>2019-10-19T07:41:54Z</time>
      </trkpt>
      <trkpt lat="45.46655" lon="4.7233">
        <ele>382.2</ele>
        <time>2019-10-19T07:42:01Z</time>
      </trkpt>
      <trkpt lat="45.4666" lon="4.72356">
        <ele>380.8</ele>
        <time>2019-10-19T07:42:08Z</time>
      </trkpt>
      <trkpt lat="45.46665" lon="4.72382">
        <ele>379.6</ele>
        <time>2019-10-19T07:42:15Z</time>
      </trkpt>
      <trkpt lat="45.46671" lon="4.72406">
        <ele>378.4</ele>
        <time>2019-10-19T07:42:22Z</time>
      </trkpt>
      <trkpt lat="45.46677" lon="4.72431">
        <ele>377.2</ele>
        <time>2019-10-19T07:42:29Z</time>
      </trkpt>
      <trkpt lat="45.46684" lon="4.72458">
        <ele>375.5</ele>
        <time>2019-10-19T07:42:37Z</time>
      </trkpt>
      <trkpt lat="45.46693" lon="4.72482">
        <ele>373.6</ele>
        <time>2019-10-19T07:42:44Z</time>
      </trkpt>
      <trkpt lat="45.46705" lon="4.72504">
        <ele>371.4</ele>
        <time>2019-10-19T07:42:51Z</time>
      </trkpt>
      <trkpt lat="45.46718" lon="4.72527">
        <ele>368.9</ele>
        <time>2019-10-19T07:42:59Z</time>
      </trkpt>
      <trkpt lat="45.4673" lon="4.72551">
        <ele>365.9</ele>
        <time>2019-10-19T07:43:07Z</time>
      </trkpt>
      <trkpt lat="45.46741" lon="4.72571">
        <ele>362.9</ele>
        <time>2019-10-19T07:43:14Z</time>
      </trkpt>
      <trkpt lat="45.46752" lon="4.72593">
        <ele>359.9</ele>
        <time>2019-10-19T07:43:22Z</time>
      </trkpt>
      <trkpt lat="45.4676" lon="4.72612">
        <ele>357.4</ele>
        <time>2019-10-19T07:43:29Z</time>
      </trkpt>
      <trkpt lat="45.4676" lon="4.72618">
        <ele>356.7</ele>
        <time>2019-10-19T07:43:31Z</time>
      </trkpt>
      <trkpt lat="45.46767" lon="4.72633">
        <ele>354.4</ele>
        <time>2019-10-19T07:43:36Z</time>
      </trkpt>
      <trkpt lat="45.46773" lon="4.72658">
        <ele>352.1</ele>
        <time>2019-10-19T07:43:45Z</time>
      </trkpt>
      <trkpt lat="45.46782" lon="4.7268">
        <ele>351.9</ele>
        <time>2019-10-19T07:43:54Z</time>
      </trkpt>
      <trkpt lat="45.46792" lon="4.72701">
        <ele>352.7</ele>
        <time>2019-10-19T07:44:03Z</time>
      </trkpt>
      <trkpt lat="45.46795" lon="4.72728">
        <ele>354.1</ele>
        <time>2019-10-19T07:44:12Z</time>
      </trkpt>
      <trkpt lat="45.46794" lon="4.72755">
        <ele>355.5</ele>
        <time>2019-10-19T07:44:21Z</time>
      </trkpt>
      <trkpt lat="45.46794" lon="4.72781">
        <ele>356.7</ele>
        <time>2019-10-19T07:44:29Z</time>
      </trkpt>
      <trkpt lat="45.46794" lon="4.72808">
        <ele>357.2</ele>
        <time>2019-10-19T07:44:37Z</time>
      </trkpt>
      <trkpt lat="45.46796" lon="4.72835">
        <ele>357</ele>
        <time>2019-10-19T07:44:45Z</time>
      </trkpt>
      <trkpt lat="45.46803" lon="4.72862">
        <ele>357.2</ele>
        <time>2019-10-19T07:44:54Z</time>
      </trkpt>
      <trkpt lat="45.46811" lon="4.72885">
        <ele>357.3</ele>
        <time>2019-10-19T07:45:02Z</time>
      </trkpt>
      <trkpt lat="45.4682" lon="4.7291">
        <ele>357.6</ele>
        <time>2019-10-19T07:45:11Z</time>
      </trkpt>
      <trkpt lat="45.46828" lon="4.72934">
        <ele>358.1</ele>
        <time>2019-10-19T07:45:19Z</time>
      </trkpt>
      <trkpt lat="45.46835" lon="4.7296">
        <ele>358.4</ele>
        <time>2019-10-19T07:45:27Z</time>
      </trkpt>
      <trkpt lat="45.46838" lon="4.72973">
        <ele>358.6</ele>
        <time>2019-10-19T07:45:31Z</time>
      </trkpt>
      <trkpt lat="45.46847" lon="4.73001">
        <ele>359.6</ele>
        <time>2019-10-19T07:45:40Z</time>
      </trkpt>
      <trkpt lat="45.46849" lon="4.73028">
        <ele>360.4</ele>
        <time>2019-10-19T07:45:48Z</time>
      </trkpt>
      <trkpt lat="45.46854" lon="4.73054">
        <ele>360.5</ele>
        <time>2019-10-19T07:45:55Z</time>
      </trkpt>
      <trkpt lat="45.46857" lon="4.73079">
        <ele>360.5</ele>
        <time>2019-10-19T07:46:02Z</time>
      </trkpt>
      <trkpt lat="45.46859" lon="4.73105">
        <ele>360.5</ele>
        <time>2019-10-19T07:46:09Z</time>
      </trkpt>
      <trkpt lat="45.46862" lon="4.7313">
        <ele>360.8</ele>
        <time>2019-10-19T07:46:16Z</time>
      </trkpt>
      <trkpt lat="45.46866" lon="4.73155">
        <ele>361.3</ele>
        <time>2019-10-19T07:46:23Z</time>
      </trkpt>
      <trkpt lat="45.46871" lon="4.73183">
        <ele>361.5</ele>
        <time>2019-10-19T07:46:31Z</time>
      </trkpt>
      <trkpt lat="45.46875" lon="4.73213">
        <ele>361.4</ele>
        <time>2019-10-19T07:46:39Z</time>
      </trkpt>
      <trkpt lat="45.46881" lon="4.7324">
        <ele>361.1</ele>
        <time>2019-10-19T07:46:47Z</time>
      </trkpt>
      <trkpt lat="45.46886" lon="4.73265">
        <ele>361</ele>
        <time>2019-10-19T07:46:54Z</time>
      </trkpt>
      <trkpt lat="45.46892" lon="4.73292">
        <ele>360.4</ele>
        <time>2019-10-19T07:47:01Z</time>
      </trkpt>
      <trkpt lat="45.46899" lon="4.73318">
        <ele>359.3</ele>
        <time>2019-10-19T07:47:08Z</time>
      </trkpt>
      <trkpt lat="45.46908" lon="4.73341">
        <ele>358.2</ele>
        <time>2019-10-19T07:47:15Z</time>
      </trkpt>
      <trkpt lat="45.46923" lon="4.73362">
        <ele>357.4</ele>
        <time>2019-10-19T07:47:23Z</time>
      </trkpt>
      <trkpt lat="45.46932" lon="4.73387">
        <ele>356.1</ele>
        <time>2019-10-19T07:47:31Z</time>
      </trkpt>
      <trkpt lat="45.4694" lon="4.73411">
        <ele>354.6</ele>
        <time>2019-10-19T07:47:38Z</time>
      </trkpt>
      <trkpt lat="45.46947" lon="4.73435">
        <ele>352.7</ele>
        <time>2019-10-19T07:47:45Z</time>
      </trkpt>
      <trkpt lat="45.46953" lon="4.73461">
        <ele>350.5</ele>
        <time>2019-10-19T07:47:53Z</time>
      </trkpt>
      <trkpt lat="45.46957" lon="4.73488">
        <ele>348.5</ele>
        <time>2019-10-19T07:48:00Z</time>
      </trkpt>
      <trkpt lat="45.46962" lon="4.73515">
        <ele>347.1</ele>
        <time>2019-10-19T07:48:07Z</time>
      </trkpt>
      <trkpt lat="45.46965" lon="4.73541">
        <ele>346</ele>
        <time>2019-10-19T07:48:14Z</time>
      </trkpt>
      <trkpt lat="45.46966" lon="4.73568">
        <ele>345.1</ele>
        <time>2019-10-19T07:48:21Z</time>
      </trkpt>
      <trkpt lat="45.46968" lon="4.73595">
        <ele>344.2</ele>
        <time>2019-10-19T07:48:28Z</time>
      </trkpt>
      <trkpt lat="45.46971" lon="4.73621">
        <ele>343.3</ele>
        <time>2019-10-19T07:48:35Z</time>
      </trkpt>
      <trkpt lat="45.46975" lon="4.73647">
        <ele>342.5</ele>
        <time>2019-10-19T07:48:42Z</time>
      </trkpt>
      <trkpt lat="45.4698" lon="4.73672">
        <ele>341.6</ele>
        <time>2019-10-19T07:48:49Z</time>
      </trkpt>
      <trkpt lat="45.46984" lon="4.73697">
        <ele>341.2</ele>
        <time>2019-10-19T07:48:56Z</time>
      </trkpt>
      <trkpt lat="45.4699" lon="4.73725">
        <ele>341.1</ele>
        <time>2019-10-19T07:49:04Z</time>
      </trkpt>
      <trkpt lat="45.46997" lon="4.7375">
        <ele>341.2</ele>
        <time>2019-10-19T07:49:11Z</time>
      </trkpt>
      <trkpt lat="45.47003" lon="4.73777">
        <ele>341.2</ele>
        <time>2019-10-19T07:49:19Z</time>
      </trkpt>
      <trkpt lat="45.47009" lon="4.73804">
        <ele>341.1</ele>
        <time>2019-10-19T07:49:27Z</time>
      </trkpt>
      <trkpt lat="45.47014" lon="4.7383">
        <ele>341</ele>
        <time>2019-10-19T07:49:34Z</time>
      </trkpt>
      <trkpt lat="45.47018" lon="4.73859">
        <ele>340.4</ele>
        <time>2019-10-19T07:49:42Z</time>
      </trkpt>
      <trkpt lat="45.47022" lon="4.73883">
        <ele>339.6</ele>
        <time>2019-10-19T07:49:49Z</time>
      </trkpt>
      <trkpt lat="45.47029" lon="4.73908">
        <ele>339</ele>
        <time>2019-10-19T07:49:56Z</time>
      </trkpt>
      <trkpt lat="45.47036" lon="4.73935">
        <ele>338.6</ele>
        <time>2019-10-19T07:50:04Z</time>
      </trkpt>
      <trkpt lat="45.4704" lon="4.73963">
        <ele>338.4</ele>
        <time>2019-10-19T07:50:12Z</time>
      </trkpt>
      <trkpt lat="45.47042" lon="4.73992">
        <ele>339.2</ele>
        <time>2019-10-19T07:50:20Z</time>
      </trkpt>
      <trkpt lat="45.47043" lon="4.7402">
        <ele>339.9</ele>
        <time>2019-10-19T07:50:28Z</time>
      </trkpt>
      <trkpt lat="45.47045" lon="4.74048">
        <ele>340.7</ele>
        <time>2019-10-19T07:50:36Z</time>
      </trkpt>
      <trkpt lat="45.47046" lon="4.74074">
        <ele>341</ele>
        <time>2019-10-19T07:50:44Z</time>
      </trkpt>
      <trkpt lat="45.47046" lon="4.74102">
        <ele>341.3</ele>
        <time>2019-10-19T07:50:53Z</time>
      </trkpt>
      <trkpt lat="45.47044" lon="4.74129">
        <ele>341.1</ele>
        <time>2019-10-19T07:51:01Z</time>
      </trkpt>
      <trkpt lat="45.47043" lon="4.74155">
        <ele>340.8</ele>
        <time>2019-10-19T07:51:09Z</time>
      </trkpt>
      <trkpt lat="45.47042" lon="4.74181">
        <ele>340.8</ele>
        <time>2019-10-19T07:51:17Z</time>
      </trkpt>
      <trkpt lat="45.47041" lon="4.74207">
        <ele>340.8</ele>
        <time>2019-10-19T07:51:25Z</time>
      </trkpt>
      <trkpt lat="45.47041" lon="4.7421">
        <ele>340.8</ele>
        <time>2019-10-19T07:51:26Z</time>
      </trkpt>
      <trkpt lat="45.47041" lon="4.74239">
        <ele>340.9</ele>
        <time>2019-10-19T07:51:35Z</time>
      </trkpt>
      <trkpt lat="45.47043" lon="4.74264">
        <ele>341</ele>
        <time>2019-10-19T07:51:43Z</time>
      </trkpt>
      <trkpt lat="45.47043" lon="4.74291">
        <ele>341.2</ele>
        <time>2019-10-19T07:51:51Z</time>
      </trkpt>
      <trkpt lat="45.47043" lon="4.7432">
        <ele>341.5</ele>
        <time>2019-10-19T07:51:59Z</time>
      </trkpt>
      <trkpt lat="45.47045" lon="4.74349">
        <ele>341.6</ele>
        <time>2019-10-19T07:52:07Z</time>
      </trkpt>
      <trkpt lat="45.47046" lon="4.74378">
        <ele>341.3</ele>
        <time>2019-10-19T07:52:15Z</time>
      </trkpt>
      <trkpt lat="45.47047" lon="4.74404">
        <ele>340.9</ele>
        <time>2019-10-19T07:52:22Z</time>
      </trkpt>
      <trkpt lat="45.47048" lon="4.74431">
        <ele>340.4</ele>
        <time>2019-10-19T07:52:29Z</time>
      </trkpt>
      <trkpt lat="45.47049" lon="4.74458">
        <ele>340</ele>
        <time>2019-10-19T07:52:36Z</time>
      </trkpt>
      <trkpt lat="45.47052" lon="4.74487">
        <ele>339.2</ele>
        <time>2019-10-19T07:52:44Z</time>
      </trkpt>
      <trkpt lat="45.47056" lon="4.74517">
        <ele>338.3</ele>
        <time>2019-10-19T07:52:52Z</time>
      </trkpt>
      <trkpt lat="45.47061" lon="4.74542">
        <ele>337.7</ele>
        <time>2019-10-19T07:52:59Z</time>
      </trkpt>
      <trkpt lat="45.47066" lon="4.74567">
        <ele>337.2</ele>
        <time>2019-10-19T07:53:06Z</time>
      </trkpt>
      <trkpt lat="45.47071" lon="4.74592">
        <ele>336.7</ele>
        <time>2019-10-19T07:53:13Z</time>
      </trkpt>
      <trkpt lat="45.47075" lon="4.74618">
        <ele>335.7</ele>
        <time>2019-10-19T07:53:20Z</time>
      </trkpt>
      <trkpt lat="45.4708" lon="4.74645">
        <ele>334.1</ele>
        <time>2019-10-19T07:53:28Z</time>
      </trkpt>
      <trkpt lat="45.47085" lon="4.74673">
        <ele>332.9</ele>
        <time>2019-10-19T07:53:36Z</time>
      </trkpt>
      <trkpt lat="45.47089" lon="4.74701">
        <ele>332.3</ele>
        <time>2019-10-19T07:53:44Z</time>
      </trkpt>
      <trkpt lat="45.47096" lon="4.74726">
        <ele>332.1</ele>
        <time>2019-10-19T07:53:52Z</time>
      </trkpt>
      <trkpt lat="45.471" lon="4.74752">
        <ele>331.9</ele>
        <time>2019-10-19T07:54:05Z</time>
      </trkpt>
      <trkpt lat="45.47104" lon="4.74778">
        <ele>331.4</ele>
        <time>2019-10-19T07:54:19Z</time>
      </trkpt>
      <trkpt lat="45.47103" lon="4.74787">
        <ele>331.2</ele>
        <time>2019-10-19T07:54:24Z</time>
      </trkpt>
      <trkpt lat="45.47101" lon="4.74805">
        <ele>330.8</ele>
        <time>2019-10-19T07:54:33Z</time>
      </trkpt>
      <trkpt lat="45.47099" lon="4.74831">
        <ele>329.9</ele>
        <time>2019-10-19T07:54:47Z</time>
      </trkpt>
      <trkpt lat="45.47094" lon="4.74854">
        <ele>329.4</ele>
        <time>2019-10-19T07:54:59Z</time>
      </trkpt>
      <trkpt lat="45.47088" lon="4.74879">
        <ele>328.7</ele>
        <time>2019-10-19T07:55:12Z</time>
      </trkpt>
      <trkpt lat="45.47082" lon="4.74905">
        <ele>328.2</ele>
        <time>2019-10-19T07:55:26Z</time>
      </trkpt>
      <trkpt lat="45.47077" lon="4.74931">
        <ele>327.7</ele>
        <time>2019-10-19T07:55:39Z</time>
      </trkpt>
      <trkpt lat="45.4707" lon="4.74955">
        <ele>327</ele>
        <time>2019-10-19T07:55:52Z</time>
      </trkpt>
      <trkpt lat="45.47062" lon="4.7498">
        <ele>326.4</ele>
        <time>2019-10-19T07:56:06Z</time>
      </trkpt>
      <trkpt lat="45.47057" lon="4.75004">
        <ele>325.8</ele>
        <time>2019-10-19T07:56:19Z</time>
      </trkpt>
      <trkpt lat="45.47049" lon="4.75029">
        <ele>325.2</ele>
        <time>2019-10-19T07:56:32Z</time>
      </trkpt>
      <trkpt lat="45.47042" lon="4.75053">
        <ele>324.8</ele>
        <time>2019-10-19T07:56:45Z</time>
      </trkpt>
      <trkpt lat="45.47034" lon="4.75073">
        <ele>324.6</ele>
        <time>2019-10-19T07:56:57Z</time>
      </trkpt>
      <trkpt lat="45.47029" lon="4.75098">
        <ele>324.4</ele>
        <time>2019-10-19T07:57:11Z</time>
      </trkpt>
      <trkpt lat="45.47022" lon="4.75122">
        <ele>324.2</ele>
        <time>2019-10-19T07:57:20Z</time>
      </trkpt>
      <trkpt lat="45.47011" lon="4.75148">
        <ele>323.9</ele>
        <time>2019-10-19T07:57:28Z</time>
      </trkpt>
      <trkpt lat="45.47001" lon="4.75171">
        <ele>323.6</ele>
        <time>2019-10-19T07:57:35Z</time>
      </trkpt>
      <trkpt lat="45.4699" lon="4.75194">
        <ele>323</ele>
        <time>2019-10-19T07:57:42Z</time>
      </trkpt>
      <trkpt lat="45.46979" lon="4.75218">
        <ele>322.5</ele>
        <time>2019-10-19T07:57:50Z</time>
      </trkpt>
      <trkpt lat="45.46965" lon="4.75237">
        <ele>322</ele>
        <time>2019-10-19T07:57:57Z</time>
      </trkpt>
      <trkpt lat="45.46951" lon="4.75258">
        <ele>321.4</ele>
        <time>2019-10-19T07:58:05Z</time>
      </trkpt>
      <trkpt lat="45.4694" lon="4.75279">
        <ele>320.9</ele>
        <time>2019-10-19T07:58:12Z</time>
      </trkpt>
      <trkpt lat="45.46929" lon="4.75302">
        <ele>320.3</ele>
        <time>2019-10-19T07:58:19Z</time>
      </trkpt>
      <trkpt lat="45.46917" lon="4.75323">
        <ele>319.7</ele>
        <time>2019-10-19T07:58:26Z</time>
      </trkpt>
      <trkpt lat="45.46903" lon="4.75348">
        <ele>319.2</ele>
        <time>2019-10-19T07:58:34Z</time>
      </trkpt>
      <trkpt lat="45.4689" lon="4.75368">
        <ele>318.6</ele>
        <time>2019-10-19T07:58:41Z</time>
      </trkpt>
      <trkpt lat="45.46877" lon="4.75389">
        <ele>318</ele>
        <time>2019-10-19T07:58:49Z</time>
      </trkpt>
      <trkpt lat="45.46876" lon="4.75392">
        <ele>318.1</ele>
        <time>2019-10-19T07:58:50Z</time>
      </trkpt>
      <trkpt lat="45.46863" lon="4.75412">
        <ele>317.6</ele>
        <time>2019-10-19T07:58:57Z</time>
      </trkpt>
      <trkpt lat="45.4685" lon="4.75434">
        <ele>317.1</ele>
        <time>2019-10-19T07:59:05Z</time>
      </trkpt>
      <trkpt lat="45.46838" lon="4.75454">
        <ele>316.8</ele>
        <time>2019-10-19T07:59:12Z</time>
      </trkpt>
      <trkpt lat="45.46828" lon="4.75477">
        <ele>316.4</ele>
        <time>2019-10-19T07:59:20Z</time>
      </trkpt>
      <trkpt lat="45.4682" lon="4.75502">
        <ele>316.1</ele>
        <time>2019-10-19T07:59:28Z</time>
      </trkpt>
      <trkpt lat="45.46813" lon="4.7553">
        <ele>316.2</ele>
        <time>2019-10-19T07:59:36Z</time>
      </trkpt>
      <trkpt lat="45.46808" lon="4.75557">
        <ele>316.2</ele>
        <time>2019-10-19T07:59:44Z</time>
      </trkpt>
      <trkpt lat="45.46804" lon="4.75583">
        <ele>316.1</ele>
        <time>2019-10-19T07:59:51Z</time>
      </trkpt>
      <trkpt lat="45.46799" lon="4.75609">
        <ele>315.7</ele>
        <time>2019-10-19T07:59:58Z</time>
      </trkpt>
      <trkpt lat="45.46793" lon="4.75634">
        <ele>315.2</ele>
        <time>2019-10-19T08:00:05Z</time>
      </trkpt>
      <trkpt lat="45.46787" lon="4.75661">
        <ele>314.5</ele>
        <time>2019-10-19T08:00:12Z</time>
      </trkpt>
      <trkpt lat="45.46783" lon="4.75686">
        <ele>313.5</ele>
        <time>2019-10-19T08:00:19Z</time>
      </trkpt>
      <trkpt lat="45.46776" lon="4.75713">
        <ele>312.7</ele>
        <time>2019-10-19T08:00:27Z</time>
      </trkpt>
      <trkpt lat="45.46769" lon="4.75737">
        <ele>312.1</ele>
        <time>2019-10-19T08:00:34Z</time>
      </trkpt>
      <trkpt lat="45.46762" lon="4.75762">
        <ele>311.4</ele>
        <time>2019-10-19T08:00:41Z</time>
      </trkpt>
      <trkpt lat="45.46754" lon="4.75787">
        <ele>310.9</ele>
        <time>2019-10-19T08:00:48Z</time>
      </trkpt>
      <trkpt lat="45.46746" lon="4.75814">
        <ele>310.2</ele>
        <time>2019-10-19T08:00:56Z</time>
      </trkpt>
      <trkpt lat="45.46739" lon="4.75838">
        <ele>309.5</ele>
        <time>2019-10-19T08:01:03Z</time>
      </trkpt>
      <trkpt lat="45.4673" lon="4.75863">
        <ele>308.9</ele>
        <time>2019-10-19T08:01:11Z</time>
      </trkpt>
      <trkpt lat="45.46723" lon="4.7589">
        <ele>308.3</ele>
        <time>2019-10-19T08:01:19Z</time>
      </trkpt>
      <trkpt lat="45.46721" lon="4.75906">
        <ele>308.1</ele>
        <time>2019-10-19T08:01:26Z</time>
      </trkpt>
      <trkpt lat="45.46711" lon="4.75929">
        <ele>307.4</ele>
        <time>2019-10-19T08:01:38Z</time>
      </trkpt>
      <trkpt lat="45.46703" lon="4.75954">
        <ele>306.3</ele>
        <time>2019-10-19T08:01:46Z</time>
      </trkpt>
      <trkpt lat="45.46695" lon="4.75977">
        <ele>305.6</ele>
        <time>2019-10-19T08:01:54Z</time>
      </trkpt>
      <trkpt lat="45.46686" lon="4.76001">
        <ele>304.4</ele>
        <time>2019-10-19T08:02:02Z</time>
      </trkpt>
      <trkpt lat="45.46679" lon="4.76025">
        <ele>303</ele>
        <time>2019-10-19T08:02:10Z</time>
      </trkpt>
      <trkpt lat="45.46674" lon="4.7605">
        <ele>301</ele>
        <time>2019-10-19T08:02:18Z</time>
      </trkpt>
      <trkpt lat="45.46664" lon="4.76075">
        <ele>298.8</ele>
        <time>2019-10-19T08:02:27Z</time>
      </trkpt>
      <trkpt lat="45.4666" lon="4.76087">
        <ele>297.2</ele>
        <time>2019-10-19T08:02:31Z</time>
      </trkpt>
      <trkpt lat="45.46654" lon="4.76112">
        <ele>294.1</ele>
        <time>2019-10-19T08:02:40Z</time>
      </trkpt>
      <trkpt lat="45.46647" lon="4.76138">
        <ele>291.1</ele>
        <time>2019-10-19T08:02:48Z</time>
      </trkpt>
      <trkpt lat="45.46636" lon="4.7616">
        <ele>288</ele>
        <time>2019-10-19T08:02:56Z</time>
      </trkpt>
      <trkpt lat="45.46622" lon="4.76178">
        <ele>284.7</ele>
        <time>2019-10-19T08:03:04Z</time>
      </trkpt>
      <trkpt lat="45.46608" lon="4.76195">
        <ele>280.8</ele>
        <time>2019-10-19T08:03:12Z</time>
      </trkpt>
      <trkpt lat="45.46597" lon="4.76217">
        <ele>275.6</ele>
        <time>2019-10-19T08:03:19Z</time>
      </trkpt>
      <trkpt lat="45.46581" lon="4.76232">
        <ele>268.1</ele>
        <time>2019-10-19T08:03:26Z</time>
      </trkpt>
      <trkpt lat="45.46563" lon="4.76229">
        <ele>266.2</ele>
        <time>2019-10-19T08:03:32Z</time>
      </trkpt>
      <trkpt lat="45.46552" lon="4.76228">
        <ele>263.5</ele>
        <time>2019-10-19T08:03:37Z</time>
      </trkpt>
      <trkpt lat="45.46548" lon="4.76236">
        <ele>260.2</ele>
        <time>2019-10-19T08:03:41Z</time>
      </trkpt>
      <trkpt lat="45.46536" lon="4.76256">
        <ele>251.9</ele>
        <time>2019-10-19T08:03:51Z</time>
      </trkpt>
      <trkpt lat="45.46523" lon="4.76263">
        <ele>245.1</ele>
        <time>2019-10-19T08:03:58Z</time>
      </trkpt>
      <trkpt lat="45.46514" lon="4.76268">
        <ele>241.3</ele>
        <time>2019-10-19T08:04:04Z</time>
      </trkpt>
      <trkpt lat="45.46496" lon="4.76269">
        <ele>237.4</ele>
        <time>2019-10-19T08:04:13Z</time>
      </trkpt>
      <trkpt lat="45.46477" lon="4.7627">
        <ele>234.2</ele>
        <time>2019-10-19T08:04:22Z</time>
      </trkpt>
      <trkpt lat="45.4647" lon="4.76271">
        <ele>231.3</ele>
        <time>2019-10-19T08:04:27Z</time>
      </trkpt>
      <trkpt lat="45.46466" lon="4.76277">
        <ele>229.8</ele>
        <time>2019-10-19T08:04:31Z</time>
      </trkpt>
      <trkpt lat="45.46452" lon="4.76285">
        <ele>225.8</ele>
        <time>2019-10-19T08:04:42Z</time>
      </trkpt>
      <trkpt lat="45.46446" lon="4.76283">
        <ele>224.9</ele>
        <time>2019-10-19T08:04:45Z</time>
      </trkpt>
      <trkpt lat="45.46442" lon="4.76284">
        <ele>224.5</ele>
        <time>2019-10-19T08:04:48Z</time>
      </trkpt>
      <trkpt lat="45.46434" lon="4.76294">
        <ele>222.2</ele>
        <time>2019-10-19T08:04:58Z</time>
      </trkpt>
      <trkpt lat="45.46431" lon="4.76321">
        <ele>218</ele>
        <time>2019-10-19T08:05:13Z</time>
      </trkpt>
      <trkpt lat="45.46421" lon="4.76344">
        <ele>212.7</ele>
        <time>2019-10-19T08:05:24Z</time>
      </trkpt>
      <trkpt lat="45.46419" lon="4.7635">
        <ele>211.8</ele>
        <time>2019-10-19T08:05:28Z</time>
      </trkpt>
      <trkpt lat="45.46417" lon="4.76352">
        <ele>211.1</ele>
        <time>2019-10-19T08:05:30Z</time>
      </trkpt>
      <trkpt lat="45.4641" lon="4.76358">
        <ele>209.6</ele>
        <time>2019-10-19T08:05:36Z</time>
      </trkpt>
      <trkpt lat="45.46391" lon="4.76354">
        <ele>208.2</ele>
        <time>2019-10-19T08:05:46Z</time>
      </trkpt>
      <trkpt lat="45.46379" lon="4.7636">
        <ele>205.4</ele>
        <time>2019-10-19T08:05:54Z</time>
      </trkpt>
      <trkpt lat="45.46383" lon="4.76374">
        <ele>203.3</ele>
        <time>2019-10-19T08:05:59Z</time>
      </trkpt>
      <trkpt lat="45.46393" lon="4.76397">
        <ele>201.9</ele>
        <time>2019-10-19T08:06:06Z</time>
      </trkpt>
      <trkpt lat="45.46404" lon="4.76418">
        <ele>198.5</ele>
        <time>2019-10-19T08:06:17Z</time>
      </trkpt>
      <trkpt lat="45.46407" lon="4.76429">
        <ele>196.4</ele>
        <time>2019-10-19T08:06:22Z</time>
      </trkpt>
      <trkpt lat="45.46402" lon="4.76437">
        <ele>195.5</ele>
        <time>2019-10-19T08:06:29Z</time>
      </trkpt>
      <trkpt lat="45.46385" lon="4.76429">
        <ele>194.5</ele>
        <time>2019-10-19T08:06:41Z</time>
      </trkpt>
      <trkpt lat="45.46372" lon="4.76435">
        <ele>192.4</ele>
        <time>2019-10-19T08:06:49Z</time>
      </trkpt>
      <trkpt lat="45.46371" lon="4.76448">
        <ele>189.8</ele>
        <time>2019-10-19T08:06:53Z</time>
      </trkpt>
      <trkpt lat="45.46373" lon="4.76463">
        <ele>188.1</ele>
        <time>2019-10-19T08:06:58Z</time>
      </trkpt>
      <trkpt lat="45.46373" lon="4.76488">
        <ele>184.3</ele>
        <time>2019-10-19T08:07:07Z</time>
      </trkpt>
      <trkpt lat="45.46376" lon="4.76512">
        <ele>181</ele>
        <time>2019-10-19T08:07:25Z</time>
      </trkpt>
      <trkpt lat="45.46395" lon="4.76513">
        <ele>179.3</ele>
        <time>2019-10-19T08:07:36Z</time>
      </trkpt>
      <trkpt lat="45.46414" lon="4.76512">
        <ele>177.2</ele>
        <time>2019-10-19T08:07:45Z</time>
      </trkpt>
      <trkpt lat="45.46431" lon="4.7652">
        <ele>175</ele>
        <time>2019-10-19T08:07:51Z</time>
      </trkpt>
      <trkpt lat="45.46431" lon="4.76536">
        <ele>172.2</ele>
        <time>2019-10-19T08:07:55Z</time>
      </trkpt>
      <trkpt lat="45.46421" lon="4.76564">
        <ele>168.8</ele>
        <time>2019-10-19T08:08:03Z</time>
      </trkpt>
      <trkpt lat="45.46404" lon="4.76576">
        <ele>166.2</ele>
        <time>2019-10-19T08:08:10Z</time>
      </trkpt>
      <trkpt lat="45.46385" lon="4.7658">
        <ele>164.5</ele>
        <time>2019-10-19T08:08:18Z</time>
      </trkpt>
      <trkpt lat="45.46366" lon="4.76583">
        <ele>163.3</ele>
        <time>2019-10-19T08:08:26Z</time>
      </trkpt>
      <trkpt lat="45.46347" lon="4.76585">
        <ele>162</ele>
        <time>2019-10-19T08:08:34Z</time>
      </trkpt>
      <trkpt lat="45.46329" lon="4.76582">
        <ele>159.5</ele>
        <time>2019-10-19T08:08:42Z</time>
      </trkpt>
      <trkpt lat="45.46315" lon="4.76573">
        <ele>159.9</ele>
        <time>2019-10-19T08:08:49Z</time>
      </trkpt>
      <trkpt lat="45.46301" lon="4.76553">
        <ele>160.4</ele>
        <time>2019-10-19T08:08:57Z</time>
      </trkpt>
      <trkpt lat="45.46287" lon="4.76533">
        <ele>160.8</ele>
        <time>2019-10-19T08:09:05Z</time>
      </trkpt>
      <trkpt lat="45.46277" lon="4.76507">
        <ele>161.3</ele>
        <time>2019-10-19T08:09:13Z</time>
      </trkpt>
      <trkpt lat="45.46268" lon="4.76484">
        <ele>161.8</ele>
        <time>2019-10-19T08:09:21Z</time>
      </trkpt>
      <trkpt lat="45.46257" lon="4.76463">
        <ele>162.3</ele>
        <time>2019-10-19T08:09:28Z</time>
      </trkpt>
      <trkpt lat="45.46247" lon="4.76439">
        <ele>162.8</ele>
        <time>2019-10-19T08:09:36Z</time>
      </trkpt>
      <trkpt lat="45.46236" lon="4.76418">
        <ele>162.1</ele>
        <time>2019-10-19T08:09:43Z</time>
      </trkpt>
      <trkpt lat="45.46227" lon="4.76392">
        <ele>161.1</ele>
        <time>2019-10-19T08:09:51Z</time>
      </trkpt>
      <trkpt lat="45.46217" lon="4.7637">
        <ele>160.8</ele>
        <time>2019-10-19T08:09:58Z</time>
      </trkpt>
      <trkpt lat="45.46205" lon="4.7635">
        <ele>160.6</ele>
        <time>2019-10-19T08:10:06Z</time>
      </trkpt>
      <trkpt lat="45.46201" lon="4.7635">
        <ele>160.5</ele>
        <time>2019-10-19T08:10:08Z</time>
      </trkpt>
      <trkpt lat="45.46193" lon="4.76356">
        <ele>158.1</ele>
        <time>2019-10-19T08:10:12Z</time>
      </trkpt>
      <trkpt lat="45.46178" lon="4.76374">
        <ele>156.2</ele>
        <time>2019-10-19T08:10:20Z</time>
      </trkpt>
      <trkpt lat="45.46163" lon="4.76394">
        <ele>154.5</ele>
        <time>2019-10-19T08:10:28Z</time>
      </trkpt>
      <trkpt lat="45.46147" lon="4.76412">
        <ele>152.3</ele>
        <time>2019-10-19T08:10:36Z</time>
      </trkpt>
      <trkpt lat="45.46139" lon="4.76421">
        <ele>152.3</ele>
        <time>2019-10-19T08:10:41Z</time>
      </trkpt>
    </trkseg>
  </trk>
</gpx>